Observation data for Fort Lancaster on 09/11/2017      Previous  Date  Next       Current Mesonet Observations  Soil Data  Daily Summary Page  Observations in Plain Language
KLA1 110500Z 07011KT 25/10 A3016 RMK A01 T02460098  RH  039%=      5-min Rain = 0
KLA1 110501Z 07009KT 25/10 A3016 RMK A01 T02460098  RH  039%=      5-min Rain = 0
KLA1 110502Z 07013KT 25/10 A3016 RMK A01 T02460099  RH  039%=      5-min Rain = 0
KLA1 110503Z 07010KT 25/10 A3016 RMK A01 T02460099  RH  039%=      5-min Rain = 0
KLA1 110504Z 07010KT 25/10 A3016 RMK A01 T02460099  RH  039%=      5-min Rain = 0
KLA1 110505Z 07010KT 25/10 A3016 RMK A01 T02450099  RH  040%=      5-min Rain = 0
KLA1 110506Z 07012KT 25/10 A3016 RMK A01 T02450100  RH  040%=      5-min Rain = 0
KLA1 110507Z 07009G14KT 25/10 A3016 RMK A01 T02450100  RH  040%=      5-min Rain = 0
KLA1 110508Z 08014KT 25/10 A3016 RMK A01 T02450100  RH  040%=      5-min Rain = 0
KLA1 110509Z 07010KT 25/10 A3016 RMK A01 T02450100  RH  040%=      5-min Rain = 0
KLA1 110510Z 08008KT 24/10 A3016 RMK A01 T02440100  RH  040%=      5-min Rain = 0
KLA1 110511Z 06011G17KT 24/10 A3016 RMK A01 T02440100  RH  040%=      5-min Rain = 0
KLA1 110512Z 07013G18KT 24/10 A3016 RMK A01 T02440100  RH  040%=      5-min Rain = 0
KLA1 110513Z 08011KT 24/10 A3016 RMK A01 T02440100  RH  040%=      5-min Rain = 0
KLA1 110514Z 09010KT 24/10 A3016 RMK A01 T02440100  RH  040%=      5-min Rain = 0
KLA1 110515Z 08006G11KT 24/10 A3016 RMK A01 T02440101  RH  040%=      5-min Rain = 0
KLA1 110516Z 08008KT 24/10 A3016 RMK A01 T02430101  RH  041%=      5-min Rain = 0
KLA1 110517Z 08007KT 24/10 A3016 RMK A01 T02430101  RH  041%=      5-min Rain = 0
KLA1 110518Z 08009KT 24/10 A3016 RMK A01 T02420101  RH  041%=      5-min Rain = 0
KLA1 110519Z 07007KT 24/10 A3016 RMK A01 T02420101  RH  041%=      5-min Rain = 0
KLA1 110520Z 07007KT 24/10 A3016 RMK A01 T02420101  RH  041%=      5-min Rain = 0
KLA1 110521Z 08008KT 24/10 A3016 RMK A01 T02410101  RH  041%=      5-min Rain = 0
KLA1 110522Z 07010KT 24/10 A3016 RMK A01 T02410101  RH  041%=      5-min Rain = 0
KLA1 110523Z 08010KT 24/10 A3016 RMK A01 T02410100  RH  041%=      5-min Rain = 0
KLA1 110524Z 07009KT 24/10 A3016 RMK A01 T02420100  RH  041%=      5-min Rain = 0
KLA1 110525Z 06008G14KT 24/10 A3016 RMK A01 T02420100  RH  041%=      5-min Rain = 0
KLA1 110526Z 09010G17KT 24/10 A3016 RMK A01 T02420100  RH  041%=      5-min Rain = 0
KLA1 110527Z 08009KT 24/10 A3016 RMK A01 T02420100  RH  041%=      5-min Rain = 0
KLA1 110528Z 08011KT 24/10 A3016 RMK A01 T02420100  RH  041%=      5-min Rain = 0
KLA1 110529Z 07008KT 24/10 A3016 RMK A01 T02410099  RH  041%=      5-min Rain = 0
KLA1 110530Z 07010KT 24/10 A3016 RMK A01 T02410099  RH  041%=      5-min Rain = 0
KLA1 110531Z 08011KT 24/10 A3016 RMK A01 T02410099  RH  041%=      5-min Rain = 0
KLA1 110532Z 06009KT 24/10 A3016 RMK A01 T02410099  RH  040%=      5-min Rain = 0
KLA1 110533Z 08008KT 24/10 A3016 RMK A01 T02410098  RH  040%=      5-min Rain = 0
KLA1 110534Z 07009KT 24/10 A3016 RMK A01 T02410098  RH  040%=      5-min Rain = 0
KLA1 110535Z 06008KT 24/10 A3016 RMK A01 T02400098  RH  040%=      5-min Rain = 0
KLA1 110536Z 07008G13KT 24/10 A3016 RMK A01 T02400097  RH  040%=      5-min Rain = 0
KLA1 110537Z 08007KT 24/10 A3016 RMK A01 T02400097  RH  040%=      5-min Rain = 0
KLA1 110538Z 08008KT 24/10 A3016 RMK A01 T02400097  RH  040%=      5-min Rain = 0
KLA1 110539Z 08011G17KT 24/10 A3016 RMK A01 T02400097  RH  040%=      5-min Rain = 0
KLA1 110540Z 07010KT 24/10 A3016 RMK A01 T02400097  RH  040%=      5-min Rain = 0
KLA1 110541Z 07008KT 24/10 A3016 RMK A01 T02410097  RH  040%=      5-min Rain = 0
KLA1 110542Z 08008KT 24/10 A3016 RMK A01 T02410097  RH  040%=      5-min Rain = 0
KLA1 110543Z 07009KT 24/10 A3016 RMK A01 T02400096  RH  040%=      5-min Rain = 0
KLA1 110544Z 08010KT 24/10 A3016 RMK A01 T02400096  RH  040%=      5-min Rain = 0
KLA1 110545Z 08012KT 24/10 A3016 RMK A01 T02410096  RH  040%=      5-min Rain = 0
KLA1 110546Z 08010KT 24/10 A3016 RMK A01 T02400095  RH  040%=      5-min Rain = 0
KLA1 110547Z 08011KT 24/10 A3016 RMK A01 T02410096  RH  040%=      5-min Rain = 0
KLA1 110548Z 08011KT 24/10 A3016 RMK A01 T02400096  RH  040%=      5-min Rain = 0
KLA1 110549Z 08009KT 24/10 A3016 RMK A01 T02400095  RH  040%=      5-min Rain = 0
KLA1 110550Z 08006KT 24/10 A3016 RMK A01 T02400095  RH  040%=      5-min Rain = 0
KLA1 110551Z 08005KT 24/10 A3016 RMK A01 T02390095  RH  040%=      5-min Rain = 0
KLA1 110552Z 09009KT 24/10 A3016 RMK A01 T02390095  RH  040%=      5-min Rain = 0
KLA1 110553Z 08007KT 24/10 A3016 RMK A01 T02390096  RH  040%=      5-min Rain = 0
KLA1 110554Z 09008KT 24/10 A3016 RMK A01 T02380095  RH  040%=      5-min Rain = 0
KLA1 110555Z 09007KT 24/10 A3016 RMK A01 T02380095  RH  040%=      5-min Rain = 0
KLA1 110556Z 09006KT 24/10 A3016 RMK A01 T02380096  RH  040%=      5-min Rain = 0
KLA1 110557Z 09005KT 24/10 A3016 RMK A01 T02380096  RH  040%=      5-min Rain = 0
KLA1 110558Z 10005KT 24/10 A3016 RMK A01 T02370095  RH  041%=      5-min Rain = 0
KLA1 110559Z 09006G11KT 24/10 A3016 RMK A01 T02370095  RH  041%=      5-min Rain = 0
KLA1 110600Z 08007KT 24/10 A3016 RMK A01 T02370095  RH  041%=      5-min Rain = 0
KLA1 110601Z 10006KT 24/10 A3016 RMK A01 T02370096  RH  041%=      5-min Rain = 0
KLA1 110602Z 10005KT 24/10 A3016 RMK A01 T02360096  RH  041%=      5-min Rain = 0
KLA1 110603Z 11007KT 24/10 A3016 RMK A01 T02350096  RH  041%=      5-min Rain = 0
KLA1 110604Z 11007KT 23/10 A3016 RMK A01 T02340096  RH  041%=      5-min Rain = 0
KLA1 110605Z 11005KT 23/10 A3016 RMK A01 T02340096  RH  041%=      5-min Rain = 0
KLA1 110606Z 11004KT 23/10 A3016 RMK A01 T02340096  RH  041%=      5-min Rain = 0
KLA1 110607Z 13005KT 23/10 A3016 RMK A01 T02330096  RH  042%=      5-min Rain = 0
KLA1 110608Z 13006KT 23/10 A3016 RMK A01 T02330096  RH  042%=      5-min Rain = 0
KLA1 110609Z 13007KT 23/10 A3016 RMK A01 T02320096  RH  042%=      5-min Rain = 0
KLA1 110610Z 14006KT 23/10 A3016 RMK A01 T02320096  RH  042%=      5-min Rain = 0
KLA1 110611Z 11006KT 23/10 A3016 RMK A01 T02310096  RH  042%=      5-min Rain = 0
KLA1 110612Z 13005KT 23/10 A3016 RMK A01 T02320096  RH  042%=      5-min Rain = 0
KLA1 110613Z 13006KT 23/10 A3016 RMK A01 T02310096  RH  042%=      5-min Rain = 0
KLA1 110614Z 12005KT 23/10 A3016 RMK A01 T02300096  RH  042%=      5-min Rain = 0
KLA1 110615Z 10003KT 23/10 A3016 RMK A01 T02290096  RH  043%=      5-min Rain = 0
KLA1 110616Z 08003KT 23/10 A3016 RMK A01 T02290096  RH  043%=      5-min Rain = 0
KLA1 110617Z 11006KT 23/10 A3016 RMK A01 T02280096  RH  043%=      5-min Rain = 0
KLA1 110618Z 10007KT 23/10 A3016 RMK A01 T02280096  RH  043%=      5-min Rain = 0
KLA1 110619Z 10005KT 23/10 A3016 RMK A01 T02270096  RH  043%=      5-min Rain = 0
KLA1 110620Z 10005KT 23/10 A3016 RMK A01 T02280096  RH  043%=      5-min Rain = 0
KLA1 110621Z 09005KT 23/10 A3016 RMK A01 T02280096  RH  043%=      5-min Rain = 0
KLA1 110622Z 09007KT 23/10 A3017 RMK A01 T02280096  RH  043%=      5-min Rain = 0
KLA1 110623Z 09006KT 23/10 A3016 RMK A01 T02280095  RH  043%=      5-min Rain = 0
KLA1 110624Z 08004KT 23/10 A3016 RMK A01 T02280096  RH  043%=      5-min Rain = 0
KLA1 110625Z 09004KT 23/10 A3017 RMK A01 T02290096  RH  043%=      5-min Rain = 0
KLA1 110626Z 07003KT 23/10 A3016 RMK A01 T02280096  RH  043%=      5-min Rain = 0
KLA1 110627Z 07003KT 23/10 A3016 RMK A01 T02270096  RH  043%=      5-min Rain = 0
KLA1 110628Z 07002KT 23/10 A3016 RMK A01 T02260096  RH  044%=      5-min Rain = 0
KLA1 110629Z 07005KT 23/10 A3016 RMK A01 T02260096  RH  044%=      5-min Rain = 0
KLA1 110630Z 08004KT 23/10 A3016 RMK A01 T02250096  RH  044%=      5-min Rain = 0
KLA1 110631Z 09004KT 23/10 A3016 RMK A01 T02250096  RH  044%=      5-min Rain = 0
KLA1 110632Z 10004KT 23/10 A3016 RMK A01 T02250096  RH  044%=      5-min Rain = 0
KLA1 110633Z 09007KT 23/10 A3016 RMK A01 T02250096  RH  044%=      5-min Rain = 0
KLA1 110634Z 08007KT 22/10 A3016 RMK A01 T02240096  RH  044%=      5-min Rain = 0
KLA1 110635Z 09005KT 23/10 A3016 RMK A01 T02250096  RH  044%=      5-min Rain = 0
KLA1 110636Z 10004KT 23/10 A3016 RMK A01 T02250096  RH  044%=      5-min Rain = 0
KLA1 110637Z 09004KT 23/10 A3017 RMK A01 T02250096  RH  044%=      5-min Rain = 0
KLA1 110638Z 10004KT 23/10 A3016 RMK A01 T02250096  RH  044%=      5-min Rain = 0
KLA1 110639Z 10006KT 22/10 A3017 RMK A01 T02240096  RH  044%=      5-min Rain = 0
KLA1 110640Z 10005KT 22/10 A3016 RMK A01 T02240096  RH  044%=      5-min Rain = 0
KLA1 110641Z 12005KT 22/10 A3016 RMK A01 T02240096  RH  044%=      5-min Rain = 0
KLA1 110642Z 11006KT 22/10 A3016 RMK A01 T02240096  RH  044%=      5-min Rain = 0
KLA1 110643Z 09005KT 22/10 A3016 RMK A01 T02240096  RH  044%=      5-min Rain = 0
KLA1 110644Z 09003KT 22/10 A3016 RMK A01 T02240096  RH  044%=      5-min Rain = 0
KLA1 110645Z 10007KT 22/10 A3016 RMK A01 T02230096  RH  044%=      5-min Rain = 0
KLA1 110646Z 12005KT 22/10 A3016 RMK A01 T02230096  RH  044%=      5-min Rain = 0
KLA1 110647Z 11007KT 22/10 A3016 RMK A01 T02240096  RH  044%=      5-min Rain = 0
KLA1 110648Z 10008KT 22/10 A3016 RMK A01 T02240096  RH  044%=      5-min Rain = 0
KLA1 110649Z 11007KT 23/10 A3016 RMK A01 T02250096  RH  044%=      5-min Rain = 0
KLA1 110650Z 10006KT 23/10 A3016 RMK A01 T02250096  RH  044%=      5-min Rain = 0
KLA1 110651Z 11007KT 23/10 A3016 RMK A01 T02250096  RH  044%=      5-min Rain = 0
KLA1 110652Z 10007KT 23/10 A3016 RMK A01 T02250096  RH  044%=      5-min Rain = 0
KLA1 110653Z 09006KT 23/10 A3016 RMK A01 T02250096  RH  044%=      5-min Rain = 0
KLA1 110654Z 11006KT 23/10 A3016 RMK A01 T02250096  RH  044%=      5-min Rain = 0
KLA1 110655Z 10007KT 23/10 A3016 RMK A01 T02250096  RH  044%=      5-min Rain = 0
KLA1 110656Z 11005KT 23/10 A3016 RMK A01 T02260096  RH  044%=      5-min Rain = 0
KLA1 110657Z 10005KT 23/10 A3016 RMK A01 T02260096  RH  044%=      5-min Rain = 0
KLA1 110658Z 11006KT 23/10 A3016 RMK A01 T02260096  RH  044%=      5-min Rain = 0
KLA1 110659Z 10006KT 23/10 A3016 RMK A01 T02260096  RH  044%=      5-min Rain = 0
KLA1 110700Z 10005KT 23/10 A3016 RMK A01 T02260097  RH  044%=      5-min Rain = 0
KLA1 110701Z 10005KT 23/10 A3016 RMK A01 T02250097  RH  044%=      5-min Rain = 0
KLA1 110702Z 10005KT 23/10 A3016 RMK A01 T02260097  RH  044%=      5-min Rain = 0
KLA1 110703Z 10005KT 23/10 A3016 RMK A01 T02250097  RH  044%=      5-min Rain = 0
KLA1 110704Z 11005KT 23/10 A3016 RMK A01 T02250097  RH  044%=      5-min Rain = 0
KLA1 110705Z 10006KT 23/10 A3016 RMK A01 T02250097  RH  044%=      5-min Rain = 0
KLA1 110706Z 10006KT 22/10 A3016 RMK A01 T02240097  RH  044%=      5-min Rain = 0
KLA1 110707Z 10005KT 22/10 A3016 RMK A01 T02240097  RH  044%=      5-min Rain = 0
KLA1 110708Z 10005KT 22/10 A3016 RMK A01 T02230097  RH  044%=      5-min Rain = 0
KLA1 110709Z 10007KT 22/10 A3016 RMK A01 T02230097  RH  044%=      5-min Rain = 0
KLA1 110710Z 09006KT 22/10 A3016 RMK A01 T02230096  RH  045%=      5-min Rain = 0
KLA1 110711Z 09008KT 22/10 A3016 RMK A01 T02230097  RH  045%=      5-min Rain = 0
KLA1 110712Z 10009KT 22/10 A3016 RMK A01 T02240097  RH  044%=      5-min Rain = 0
KLA1 110713Z 10007KT 22/10 A3016 RMK A01 T02240097  RH  044%=      5-min Rain = 0
KLA1 110714Z 10007KT 23/10 A3016 RMK A01 T02250097  RH  044%=      5-min Rain = 0
KLA1 110715Z 09007KT 23/10 A3016 RMK A01 T02250097  RH  044%=      5-min Rain = 0
KLA1 110716Z 09009KT 23/10 A3016 RMK A01 T02250097  RH  044%=      5-min Rain = 0
KLA1 110717Z 09008KT 23/10 A3016 RMK A01 T02250097  RH  044%=      5-min Rain = 0
KLA1 110718Z 08007KT 22/10 A3016 RMK A01 T02240097  RH  044%=      5-min Rain = 0
KLA1 110719Z 09008KT 22/10 A3016 RMK A01 T02240097  RH  044%=      5-min Rain = 0
KLA1 110720Z 09007KT 22/10 A3016 RMK A01 T02240097  RH  044%=      5-min Rain = 0
KLA1 110721Z 09006KT 22/10 A3016 RMK A01 T02230097  RH  045%=      5-min Rain = 0
KLA1 110722Z 09007KT 22/10 A3016 RMK A01 T02220097  RH  045%=      5-min Rain = 0
KLA1 110723Z 08007KT 22/10 A3016 RMK A01 T02220097  RH  045%=      5-min Rain = 0
KLA1 110724Z 09008KT 22/10 A3016 RMK A01 T02210097  RH  045%=      5-min Rain = 0
KLA1 110725Z 09008KT 22/10 A3016 RMK A01 T02210097  RH  045%=      5-min Rain = 0
KLA1 110726Z 11006KT 22/10 A3016 RMK A01 T02210097  RH  045%=      5-min Rain = 0
KLA1 110727Z 11007KT 22/10 A3016 RMK A01 T02210097  RH  045%=      5-min Rain = 0
KLA1 110728Z 11008KT 22/10 A3016 RMK A01 T02220097  RH  045%=      5-min Rain = 0
KLA1 110729Z 09007KT 22/10 A3016 RMK A01 T02220097  RH  045%=      5-min Rain = 0
KLA1 110730Z 09007KT 22/10 A3016 RMK A01 T02220097  RH  045%=      5-min Rain = 0
KLA1 110731Z 09007KT 22/10 A3016 RMK A01 T02220097  RH  045%=      5-min Rain = 0
KLA1 110732Z 09008KT 22/10 A3016 RMK A01 T02220097  RH  045%=      5-min Rain = 0
KLA1 110733Z 09006KT 22/10 A3016 RMK A01 T02220097  RH  045%=      5-min Rain = 0
KLA1 110734Z 10007KT 22/10 A3016 RMK A01 T02220097  RH  045%=      5-min Rain = 0
KLA1 110735Z 10006KT 22/10 A3016 RMK A01 T02220097  RH  045%=      5-min Rain = 0
KLA1 110736Z 10006KT 22/10 A3016 RMK A01 T02210097  RH  045%=      5-min Rain = 0
KLA1 110737Z 09006KT 22/10 A3016 RMK A01 T02210097  RH  045%=      5-min Rain = 0
KLA1 110738Z 10006KT 22/10 A3016 RMK A01 T02200097  RH  045%=      5-min Rain = 0
KLA1 110739Z 10005KT 22/10 A3016 RMK A01 T02200097  RH  045%=      5-min Rain = 0
KLA1 110740Z 10005KT 22/10 A3016 RMK A01 T02200097  RH  046%=      5-min Rain = 0
KLA1 110741Z 11005KT 22/10 A3016 RMK A01 T02200098  RH  046%=      5-min Rain = 0
KLA1 110742Z 11005KT 22/10 A3016 RMK A01 T02190097  RH  046%=      5-min Rain = 0
KLA1 110743Z 11005KT 22/10 A3016 RMK A01 T02190097  RH  046%=      5-min Rain = 0
KLA1 110744Z 10006KT 22/10 A3016 RMK A01 T02180097  RH  046%=      5-min Rain = 0
KLA1 110745Z 11006KT 22/10 A3016 RMK A01 T02180097  RH  046%=      5-min Rain = 0
KLA1 110746Z 10005KT 22/10 A3016 RMK A01 T02180097  RH  046%=      5-min Rain = 0
KLA1 110747Z 11005KT 22/10 A3016 RMK A01 T02190098  RH  046%=      5-min Rain = 0
KLA1 110748Z 10004KT 22/10 A3016 RMK A01 T02180097  RH  046%=      5-min Rain = 0
KLA1 110749Z 10005KT 22/10 A3016 RMK A01 T02170097  RH  046%=      5-min Rain = 0
KLA1 110750Z 10005KT 22/10 A3016 RMK A01 T02160097  RH  047%=      5-min Rain = 0
KLA1 110751Z 11005KT 22/10 A3016 RMK A01 T02150097  RH  047%=      5-min Rain = 0
KLA1 110752Z 11005KT 22/10 A3016 RMK A01 T02150097  RH  047%=      5-min Rain = 0
KLA1 110753Z 10004KT 22/10 A3016 RMK A01 T02150097  RH  047%=      5-min Rain = 0
KLA1 110754Z 11005KT 21/10 A3016 RMK A01 T02140097  RH  047%=      5-min Rain = 0
KLA1 110755Z 11005KT 21/10 A3016 RMK A01 T02140097  RH  047%=      5-min Rain = 0
KLA1 110756Z 11005KT 21/10 A3016 RMK A01 T02140097  RH  047%=      5-min Rain = 0
KLA1 110757Z 10005KT 21/10 A3016 RMK A01 T02140097  RH  047%=      5-min Rain = 0
KLA1 110758Z 10005KT 21/10 A3016 RMK A01 T02130097  RH  047%=      5-min Rain = 0
KLA1 110759Z 10006KT 21/10 A3016 RMK A01 T02130097  RH  048%=      5-min Rain = 0
KLA1 110800Z 09005KT 21/10 A3016 RMK A01 T02120097  RH  048%=      5-min Rain = 0
KLA1 110801Z 10005KT 21/10 A3016 RMK A01 T02120097  RH  048%=      5-min Rain = 0
KLA1 110802Z 10006KT 21/10 A3016 RMK A01 T02120097  RH  048%=      5-min Rain = 0
KLA1 110803Z 10006KT 21/10 A3016 RMK A01 T02120097  RH  048%=      5-min Rain = 0
KLA1 110804Z 09005KT 21/10 A3016 RMK A01 T02120098  RH  048%=      5-min Rain = 0
KLA1 110805Z 08005KT 21/10 A3016 RMK A01 T02120098  RH  048%=      5-min Rain = 0
KLA1 110806Z 09006KT 21/10 A3016 RMK A01 T02120097  RH  048%=      5-min Rain = 0
KLA1 110807Z 09006KT 21/10 A3016 RMK A01 T02110098  RH  048%=      5-min Rain = 0
KLA1 110808Z 10006KT 21/10 A3016 RMK A01 T02100098  RH  049%=      5-min Rain = 0
KLA1 110809Z 08005KT 21/10 A3016 RMK A01 T02100098  RH  049%=      5-min Rain = 0
KLA1 110810Z 09006KT 21/10 A3016 RMK A01 T02100098  RH  049%=      5-min Rain = 0
KLA1 110811Z 09006KT 21/10 A3016 RMK A01 T02100098  RH  049%=      5-min Rain = 0
KLA1 110812Z 09006KT 21/10 A3016 RMK A01 T02090098  RH  049%=      5-min Rain = 0
KLA1 110813Z 09006KT 21/10 A3016 RMK A01 T02090098  RH  049%=      5-min Rain = 0
KLA1 110814Z 10006KT 21/10 A3016 RMK A01 T02090098  RH  049%=      5-min Rain = 0
KLA1 110815Z 09005KT 21/10 A3016 RMK A01 T02090098  RH  049%=      5-min Rain = 0
KLA1 110816Z 10005KT 21/10 A3016 RMK A01 T02100098  RH  049%=      5-min Rain = 0
KLA1 110817Z 10006KT 21/10 A3016 RMK A01 T02100098  RH  049%=      5-min Rain = 0
KLA1 110818Z 10005KT 21/10 A3016 RMK A01 T02100099  RH  049%=      5-min Rain = 0
KLA1 110819Z 11006KT 21/10 A3016 RMK A01 T02120099  RH  049%=      5-min Rain = 0
KLA1 110820Z 11006KT 21/10 A3016 RMK A01 T02120099  RH  048%=      5-min Rain = 0
KLA1 110821Z 11004KT 21/10 A3016 RMK A01 T02140099  RH  048%=      5-min Rain = 0
KLA1 110822Z 10006KT 21/10 A3016 RMK A01 T02140099  RH  048%=      5-min Rain = 0
KLA1 110823Z 10005KT 21/10 A3016 RMK A01 T02140100  RH  048%=      5-min Rain = 0
KLA1 110824Z 09006KT 21/10 A3016 RMK A01 T02140100  RH  048%=      5-min Rain = 0
KLA1 110825Z 10005KT 21/10 A3016 RMK A01 T02140100  RH  048%=      5-min Rain = 0
KLA1 110826Z 10004KT 21/10 A3016 RMK A01 T02140100  RH  048%=      5-min Rain = 0
KLA1 110827Z 10003KT 21/10 A3016 RMK A01 T02140100  RH  048%=      5-min Rain = 0
KLA1 110828Z 10005KT 21/10 A3016 RMK A01 T02130100  RH  048%=      5-min Rain = 0
KLA1 110829Z 11004KT 21/10 A3016 RMK A01 T02130099  RH  048%=      5-min Rain = 0
KLA1 110830Z 10003KT 21/10 A3016 RMK A01 T02130100  RH  048%=      5-min Rain = 0
KLA1 110831Z 10004KT 21/10 A3016 RMK A01 T02130100  RH  048%=      5-min Rain = 0
KLA1 110832Z 11003KT 21/10 A3016 RMK A01 T02130100  RH  048%=      5-min Rain = 0
KLA1 110833Z 11003KT 21/10 A3016 RMK A01 T02120099  RH  048%=      5-min Rain = 0
KLA1 110834Z 11003KT 21/10 A3016 RMK A01 T02120099  RH  048%=      5-min Rain = 0
KLA1 110835Z 12002KT 21/10 A3016 RMK A01 T02120099  RH  049%=      5-min Rain = 0
KLA1 110836Z 13002KT 21/10 A3016 RMK A01 T02110099  RH  049%=      5-min Rain = 0
KLA1 110837Z 13002KT 21/10 A3016 RMK A01 T02100099  RH  049%=      5-min Rain = 0
KLA1 110838Z 13003KT 21/10 A3016 RMK A01 T02090099  RH  049%=      5-min Rain = 0
KLA1 110839Z 13002KT 21/10 A3016 RMK A01 T02070099  RH  050%=      5-min Rain = 0
KLA1 110840Z 12003KT 21/10 A3016 RMK A01 T02060099  RH  050%=      5-min Rain = 0
KLA1 110841Z 13004KT 20/10 A3016 RMK A01 T02040099  RH  051%=      5-min Rain = 0
KLA1 110842Z 12004KT 20/10 A3016 RMK A01 T02030099  RH  051%=      5-min Rain = 0
KLA1 110843Z 11003KT 20/10 A3016 RMK A01 T02030099  RH  051%=      5-min Rain = 0
KLA1 110844Z 10003KT 20/10 A3016 RMK A01 T02030099  RH  051%=      5-min Rain = 0
KLA1 110845Z 10004KT 20/10 A3016 RMK A01 T02030099  RH  051%=      5-min Rain = 0
KLA1 110846Z 10004KT 20/10 A3016 RMK A01 T02030099  RH  051%=      5-min Rain = 0
KLA1 110847Z 10004KT 20/10 A3016 RMK A01 T02030099  RH  051%=      5-min Rain = 0
KLA1 110848Z 10003KT 20/10 A3016 RMK A01 T02010099  RH  052%=      5-min Rain = 0
KLA1 110849Z 10003KT 20/10 A3016 RMK A01 T02000099  RH  052%=      5-min Rain = 0
KLA1 110850Z 10004KT 20/10 A3016 RMK A01 T02000099  RH  052%=      5-min Rain = 0
KLA1 110851Z 10004KT 20/10 A3016 RMK A01 T02000099  RH  052%=      5-min Rain = 0
KLA1 110852Z 11004KT 20/10 A3016 RMK A01 T02000100  RH  052%=      5-min Rain = 0
KLA1 110853Z 11004KT 20/10 A3015 RMK A01 T02000099  RH  052%=      5-min Rain = 0
KLA1 110854Z 10005KT 20/10 A3015 RMK A01 T02010100  RH  052%=      5-min Rain = 0
KLA1 110855Z 11005KT 20/10 A3015 RMK A01 T02010100  RH  052%=      5-min Rain = 0
KLA1 110856Z 10004KT 20/10 A3015 RMK A01 T02020100  RH  052%=      5-min Rain = 0
KLA1 110857Z 10004KT 20/10 A3015 RMK A01 T02030100  RH  052%=      5-min Rain = 0
KLA1 110858Z 11003KT 20/10 A3015 RMK A01 T02040100  RH  051%=      5-min Rain = 0
KLA1 110859Z 11003KT 20/10 A3015 RMK A01 T02040100  RH  051%=      5-min Rain = 0
KLA1 110900Z 10004KT 20/10 A3015 RMK A01 T02040100  RH  051%=      5-min Rain = 0
KLA1 110901Z 11004KT 21/10 A3015 RMK A01 T02050100  RH  051%=      5-min Rain = 0
KLA1 110902Z 10004KT 21/10 A3015 RMK A01 T02050100  RH  051%=      5-min Rain = 0
KLA1 110903Z 10004KT 21/10 A3015 RMK A01 T02050100  RH  051%=      5-min Rain = 0
KLA1 110904Z 12003KT 21/10 A3015 RMK A01 T02050101  RH  051%=      5-min Rain = 0
KLA1 110905Z 12003KT 20/10 A3015 RMK A01 T02040100  RH  051%=      5-min Rain = 0
KLA1 110906Z 11003KT 20/10 A3015 RMK A01 T02030100  RH  052%=      5-min Rain = 0
KLA1 110907Z 11004KT 20/10 A3015 RMK A01 T02020100  RH  052%=      5-min Rain = 0
KLA1 110908Z 10003KT 20/10 A3015 RMK A01 T02020101  RH  052%=      5-min Rain = 0
KLA1 110909Z 10004KT 20/10 A3015 RMK A01 T02020101  RH  052%=      5-min Rain = 0
KLA1 110910Z 10004KT 20/10 A3015 RMK A01 T02020101  RH  052%=      5-min Rain = 0
KLA1 110911Z 10004KT 20/10 A3015 RMK A01 T02030101  RH  052%=      5-min Rain = 0
KLA1 110912Z 10004KT 20/10 A3015 RMK A01 T02020101  RH  052%=      5-min Rain = 0
KLA1 110913Z 09004KT 20/10 A3015 RMK A01 T02020101  RH  052%=      5-min Rain = 0
KLA1 110914Z 10003KT 20/10 A3015 RMK A01 T02020101  RH  052%=      5-min Rain = 0
KLA1 110915Z 10002KT 20/10 A3015 RMK A01 T02000100  RH  053%=      5-min Rain = 0
KLA1 110916Z 10002KT 20/10 A3015 RMK A01 T01990100  RH  053%=      5-min Rain = 0
KLA1 110917Z 11002KT 20/10 A3015 RMK A01 T01990100  RH  053%=      5-min Rain = 0
KLA1 110918Z 11002KT 20/10 A3015 RMK A01 T01990100  RH  053%=      5-min Rain = 0
KLA1 110919Z 10003KT 20/10 A3015 RMK A01 T01980100  RH  053%=      5-min Rain = 0
KLA1 110920Z 11003KT 20/10 A3015 RMK A01 T01980100  RH  053%=      5-min Rain = 0
KLA1 110921Z 11003KT 20/10 A3015 RMK A01 T01980100  RH  053%=      5-min Rain = 0
KLA1 110922Z 11003KT 20/10 A3015 RMK A01 T01980100  RH  053%=      5-min Rain = 0
KLA1 110923Z 10003KT 20/10 A3015 RMK A01 T01980100  RH  053%=      5-min Rain = 0
KLA1 110924Z 10003KT 20/10 A3015 RMK A01 T01970100  RH  053%=      5-min Rain = 0
KLA1 110925Z 11003KT 20/10 A3015 RMK A01 T01970100  RH  053%=      5-min Rain = 0
KLA1 110926Z 11003KT 20/10 A3015 RMK A01 T01970100  RH  053%=      5-min Rain = 0
KLA1 110927Z 11003KT 20/10 A3015 RMK A01 T01970100  RH  053%=      5-min Rain = 0
KLA1 110928Z 12003KT 20/10 A3015 RMK A01 T01970100  RH  054%=      5-min Rain = 0
KLA1 110929Z 11003KT 20/10 A3015 RMK A01 T01960100  RH  054%=      5-min Rain = 0
KLA1 110930Z 11003KT 20/10 A3015 RMK A01 T01950100  RH  054%=      5-min Rain = 0
KLA1 110931Z 10003KT 20/10 A3015 RMK A01 T01950100  RH  054%=      5-min Rain = 0
KLA1 110932Z 10002KT 20/10 A3015 RMK A01 T01950100  RH  054%=      5-min Rain = 0
KLA1 110933Z 11002KT 20/10 A3015 RMK A01 T01950100  RH  054%=      5-min Rain = 0
KLA1 110934Z 11003KT 19/10 A3015 RMK A01 T01940100  RH  054%=      5-min Rain = 0
KLA1 110935Z 11003KT 19/10 A3015 RMK A01 T01940100  RH  054%=      5-min Rain = 0
KLA1 110936Z 11002KT 19/10 A3015 RMK A01 T01940100  RH  054%=      5-min Rain = 0
KLA1 110937Z 12002KT 19/10 A3015 RMK A01 T01940100  RH  054%=      5-min Rain = 0
KLA1 110938Z 12002KT 19/10 A3015 RMK A01 T01940100  RH  054%=      5-min Rain = 0
KLA1 110939Z 11002KT 19/10 A3015 RMK A01 T01940099  RH  054%=      5-min Rain = 0
KLA1 110940Z 12002KT 19/10 A3015 RMK A01 T01930099  RH  054%=      5-min Rain = 0
KLA1 110941Z 11002KT 19/10 A3015 RMK A01 T01940099  RH  054%=      5-min Rain = 0
KLA1 110942Z 10002KT 19/10 A3015 RMK A01 T01930099  RH  054%=      5-min Rain = 0
KLA1 110943Z 10002KT 19/10 A3015 RMK A01 T01930099  RH  054%=      5-min Rain = 0
KLA1 110944Z 10002KT 19/10 A3015 RMK A01 T01940100  RH  054%=      5-min Rain = 0
KLA1 110945Z 10002KT 19/10 A3015 RMK A01 T01940100  RH  054%=      5-min Rain = 0
KLA1 110946Z 10003KT 20/10 A3015 RMK A01 T01950100  RH  054%=      5-min Rain = 0
KLA1 110947Z 10003KT 20/10 A3015 RMK A01 T01950100  RH  054%=      5-min Rain = 0
KLA1 110948Z 10003KT 20/10 A3015 RMK A01 T01950100  RH  054%=      5-min Rain = 0
KLA1 110949Z 10002KT 19/10 A3015 RMK A01 T01940099  RH  054%=      5-min Rain = 0
KLA1 110950Z 10003KT 19/10 A3015 RMK A01 T01930099  RH  054%=      5-min Rain = 0
KLA1 110951Z 11003KT 19/10 A3015 RMK A01 T01930099  RH  055%=      5-min Rain = 0
KLA1 110952Z 11003KT 19/10 A3015 RMK A01 T01930099  RH  055%=      5-min Rain = 0
KLA1 110953Z 11003KT 19/10 A3015 RMK A01 T01930099  RH  055%=      5-min Rain = 0
KLA1 110954Z 11003KT 19/10 A3015 RMK A01 T01920099  RH  055%=      5-min Rain = 0
KLA1 110955Z 11003KT 19/10 A3016 RMK A01 T01920099  RH  055%=      5-min Rain = 0
KLA1 110956Z 11003KT 19/10 A3016 RMK A01 T01910099  RH  055%=      5-min Rain = 0
KLA1 110957Z 12003KT 19/10 A3016 RMK A01 T01910099  RH  055%=      5-min Rain = 0
KLA1 110958Z 11003KT 19/10 A3016 RMK A01 T01910099  RH  055%=      5-min Rain = 0
KLA1 110959Z 11003KT 19/10 A3016 RMK A01 T01910099  RH  055%=      5-min Rain = 0
KLA1 111000Z 11003KT 19/10 A3016 RMK A01 T01900099  RH  055%=      5-min Rain = 0
KLA1 111001Z 11003KT 19/10 A3016 RMK A01 T01900099  RH  055%=      5-min Rain = 0
KLA1 111002Z 11003KT 19/10 A3016 RMK A01 T01900099  RH  056%=      5-min Rain = 0
KLA1 111003Z 11002KT 19/10 A3016 RMK A01 T01900099  RH  056%=      5-min Rain = 0
KLA1 111004Z 12002KT 19/10 A3016 RMK A01 T01900099  RH  056%=      5-min Rain = 0
KLA1 111005Z 12002KT 19/10 A3016 RMK A01 T01890099  RH  056%=      5-min Rain = 0
KLA1 111006Z 12002KT 19/10 A3016 RMK A01 T01890099  RH  056%=      5-min Rain = 0
KLA1 111007Z 12002KT 19/10 A3016 RMK A01 T01890099  RH  056%=      5-min Rain = 0
KLA1 111008Z 12001KT 19/10 A3016 RMK A01 T01890099  RH  056%=      5-min Rain = 0
KLA1 111009Z 11001KT 19/10 A3016 RMK A01 T01890099  RH  056%=      5-min Rain = 0
KLA1 111010Z 12001KT 19/10 A3016 RMK A01 T01890099  RH  056%=      5-min Rain = 0
KLA1 111011Z 12002KT 19/10 A3016 RMK A01 T01890099  RH  056%=      5-min Rain = 0
KLA1 111012Z 12001KT 19/10 A3016 RMK A01 T01890099  RH  056%=      5-min Rain = 0
KLA1 111013Z 12001KT 19/10 A3016 RMK A01 T01880099  RH  056%=      5-min Rain = 0
KLA1 111014Z 11001KT 19/10 A3016 RMK A01 T01860100  RH  057%=      5-min Rain = 0
KLA1 111015Z 11001KT 19/10 A3016 RMK A01 T01850100  RH  058%=      5-min Rain = 0
KLA1 111016Z 11001KT 18/10 A3016 RMK A01 T01830100  RH  059%=      5-min Rain = 0
KLA1 111017Z 11001KT 18/10 A3016 RMK A01 T01810100  RH  059%=      5-min Rain = 0
KLA1 111018Z 10000KT 18/10 A3016 RMK A01 T01800099  RH  059%=      5-min Rain = 0
KLA1 111019Z 00000KT 18/10 A3016 RMK A01 T01800099  RH  059%=      5-min Rain = 0
KLA1 111020Z 00000KT 18/10 A3016 RMK A01 T01790099  RH  059%=      5-min Rain = 0
KLA1 111021Z 00000KT 18/10 A3016 RMK A01 T01790099  RH  059%=      5-min Rain = 0
KLA1 111022Z 00000KT 18/10 A3016 RMK A01 T01780099  RH  060%=      5-min Rain = 0
KLA1 111023Z 00000KT 18/10 A3016 RMK A01 T01780099  RH  060%=      5-min Rain = 0
KLA1 111024Z 00000KT 18/10 A3016 RMK A01 T01770099  RH  060%=      5-min Rain = 0
KLA1 111025Z 00000KT 18/10 A3016 RMK A01 T01770099  RH  060%=      5-min Rain = 0
KLA1 111026Z 00000KT 18/10 A3016 RMK A01 T01770099  RH  060%=      5-min Rain = 0
KLA1 111027Z 00000KT 18/10 A3016 RMK A01 T01770099  RH  060%=      5-min Rain = 0
KLA1 111028Z 00000KT 18/10 A3016 RMK A01 T01770099  RH  060%=      5-min Rain = 0
KLA1 111029Z 00000KT 18/10 A3016 RMK A01 T01770099  RH  060%=      5-min Rain = 0
KLA1 111030Z 00000KT 18/10 A3016 RMK A01 T01770099  RH  060%=      5-min Rain = 0
KLA1 111031Z 00000KT 18/10 A3016 RMK A01 T01770099  RH  060%=      5-min Rain = 0
KLA1 111032Z 00000KT 18/10 A3016 RMK A01 T01770099  RH  060%=      5-min Rain = 0
KLA1 111033Z 00000KT 18/10 A3016 RMK A01 T01770099  RH  060%=      5-min Rain = 0
KLA1 111034Z 00000KT 18/10 A3016 RMK A01 T01770099  RH  060%=      5-min Rain = 0
KLA1 111035Z 00000KT 18/10 A3016 RMK A01 T01760100  RH  061%=      5-min Rain = 0
KLA1 111036Z 00000KT 17/10 A3016 RMK A01 T01740100  RH  061%=      5-min Rain = 0
KLA1 111037Z 00000KT 17/10 A3016 RMK A01 T01730100  RH  062%=      5-min Rain = 0
KLA1 111038Z 00000KT 17/10 A3016 RMK A01 T01710099  RH  062%=      5-min Rain = 0
KLA1 111039Z 00000KT 17/10 A3016 RMK A01 T01690098  RH  063%=      5-min Rain = 0
KLA1 111040Z 00000KT 17/10 A3016 RMK A01 T01680097  RH  063%=      5-min Rain = 0
KLA1 111041Z 00000KT 17/10 A3016 RMK A01 T01660097  RH  064%=      5-min Rain = 0
KLA1 111042Z 00000KT 17/10 A3016 RMK A01 T01650097  RH  064%=      5-min Rain = 0
KLA1 111043Z 00000KT 17/10 A3016 RMK A01 T01650098  RH  065%=      5-min Rain = 0
KLA1 111044Z 00000KT 16/10 A3017 RMK A01 T01640098  RH  065%=      5-min Rain = 0
KLA1 111045Z 00000KT 16/10 A3017 RMK A01 T01640098  RH  065%=      5-min Rain = 0
KLA1 111046Z 00000KT 16/10 A3017 RMK A01 T01640098  RH  065%=      5-min Rain = 0
KLA1 111047Z 00000KT 16/10 A3017 RMK A01 T01640098  RH  065%=      5-min Rain = 0
KLA1 111048Z 00000KT 16/10 A3017 RMK A01 T01640098  RH  065%=      5-min Rain = 0
KLA1 111049Z 00000KT 16/10 A3017 RMK A01 T01640099  RH  065%=      5-min Rain = 0
KLA1 111050Z 00000KT 16/10 A3017 RMK A01 T01640099  RH  065%=      5-min Rain = 0
KLA1 111051Z 00000KT 16/10 A3017 RMK A01 T01630098  RH  065%=      5-min Rain = 0
KLA1 111052Z 00000KT 16/10 A3017 RMK A01 T01610098  RH  066%=      5-min Rain = 0
KLA1 111053Z 00000KT 16/10 A3017 RMK A01 T01610098  RH  066%=      5-min Rain = 0
KLA1 111054Z 00000KT 16/10 A3017 RMK A01 T01600098  RH  066%=      5-min Rain = 0
KLA1 111055Z 00000KT 16/10 A3017 RMK A01 T01610098  RH  066%=      5-min Rain = 0
KLA1 111056Z 00000KT 16/10 A3017 RMK A01 T01610098  RH  066%=      5-min Rain = 0
KLA1 111057Z 00000KT 16/10 A3017 RMK A01 T01610098  RH  066%=      5-min Rain = 0
KLA1 111058Z 00000KT 16/10 A3017 RMK A01 T01610098  RH  066%=      5-min Rain = 0
KLA1 111059Z 00000KT 16/10 A3017 RMK A01 T01610097  RH  066%=      5-min Rain = 0
KLA1 111100Z 00000KT 16/10 A3017 RMK A01 T01600098  RH  066%=      5-min Rain = 0
KLA1 111101Z 00000KT 16/10 A3017 RMK A01 T01600098  RH  067%=      5-min Rain = 0
KLA1 111102Z 00000KT 16/10 A3017 RMK A01 T01600098  RH  067%=      5-min Rain = 0
KLA1 111103Z 00000KT 16/10 A3017 RMK A01 T01600098  RH  067%=      5-min Rain = 0
KLA1 111104Z 00000KT 16/10 A3017 RMK A01 T01600098  RH  067%=      5-min Rain = 0
KLA1 111105Z 00000KT 16/10 A3017 RMK A01 T01600098  RH  067%=      5-min Rain = 0
KLA1 111106Z 00000KT 16/10 A3017 RMK A01 T01600098  RH  067%=      5-min Rain = 0
KLA1 111107Z 00000KT 16/10 A3017 RMK A01 T01600098  RH  067%=      5-min Rain = 0
KLA1 111108Z 00000KT 16/10 A3017 RMK A01 T01590098  RH  067%=      5-min Rain = 0
KLA1 111109Z 00000KT 16/10 A3017 RMK A01 T01590098  RH  067%=      5-min Rain = 0
KLA1 111110Z 00000KT 16/10 A3017 RMK A01 T01580098  RH  068%=      5-min Rain = 0
KLA1 111111Z 00000KT 16/10 A3017 RMK A01 T01580098  RH  068%=      5-min Rain = 0
KLA1 111112Z 00000KT 16/10 A3017 RMK A01 T01580099  RH  068%=      5-min Rain = 0
KLA1 111113Z 00000KT 16/10 A3017 RMK A01 T01580099  RH  068%=      5-min Rain = 0
KLA1 111114Z 00000KT 16/10 A3017 RMK A01 T01580099  RH  068%=      5-min Rain = 0
KLA1 111115Z 00000KT 16/10 A3017 RMK A01 T01570100  RH  068%=      5-min Rain = 0
KLA1 111116Z 00000KT 16/10 A3017 RMK A01 T01570100  RH  069%=      5-min Rain = 0
KLA1 111117Z 00000KT 16/10 A3017 RMK A01 T01570099  RH  069%=      5-min Rain = 0
KLA1 111118Z 00000KT 16/10 A3017 RMK A01 T01570099  RH  069%=      5-min Rain = 0
KLA1 111119Z 00000KT 16/10 A3017 RMK A01 T01560098  RH  069%=      5-min Rain = 0
KLA1 111120Z 00000KT 16/10 A3017 RMK A01 T01560099  RH  069%=      5-min Rain = 0
KLA1 111121Z 00000KT 16/10 A3017 RMK A01 T01560098  RH  068%=      5-min Rain = 0
KLA1 111122Z 00000KT 16/10 A3017 RMK A01 T01560098  RH  068%=      5-min Rain = 0
KLA1 111123Z 00000KT 16/10 A3017 RMK A01 T01560098  RH  068%=      5-min Rain = 0
KLA1 111124Z 00000KT 16/10 A3017 RMK A01 T01570099  RH  068%=      5-min Rain = 0
KLA1 111125Z 00000KT 16/10 A3017 RMK A01 T01580099  RH  068%=      5-min Rain = 0
KLA1 111126Z 06000KT 16/10 A3017 RMK A01 T01590099  RH  068%=      5-min Rain = 0
KLA1 111127Z 06001KT 16/10 A3017 RMK A01 T01600099  RH  067%=      5-min Rain = 0
KLA1 111128Z 06001KT 16/10 A3017 RMK A01 T01610099  RH  067%=      5-min Rain = 0
KLA1 111129Z 06001KT 16/10 A3017 RMK A01 T01630099  RH  066%=      5-min Rain = 0
KLA1 111130Z 06001KT 16/10 A3017 RMK A01 T01630099  RH  066%=      5-min Rain = 0
KLA1 111131Z 05001KT 16/10 A3017 RMK A01 T01640100  RH  066%=      5-min Rain = 0
KLA1 111132Z 06001KT 16/10 A3017 RMK A01 T01630099  RH  066%=      5-min Rain = 0
KLA1 111133Z 07001KT 16/10 A3017 RMK A01 T01620099  RH  066%=      5-min Rain = 0
KLA1 111134Z 06001KT 16/10 A3017 RMK A01 T01610099  RH  067%=      5-min Rain = 0
KLA1 111135Z 06002KT 16/10 A3017 RMK A01 T01610099  RH  067%=      5-min Rain = 0
KLA1 111136Z 06002KT 16/10 A3017 RMK A01 T01610099  RH  067%=      5-min Rain = 0
KLA1 111137Z 05002KT 16/10 A3017 RMK A01 T01610099  RH  067%=      5-min Rain = 0
KLA1 111138Z 03002KT 16/10 A3017 RMK A01 T01610099  RH  066%=      5-min Rain = 0
KLA1 111139Z 02002KT 16/10 A3017 RMK A01 T01630099  RH  066%=      5-min Rain = 0
KLA1 111140Z 02002KT 16/10 A3017 RMK A01 T01640100  RH  066%=      5-min Rain = 0
KLA1 111141Z 01001KT 16/10 A3017 RMK A01 T01640099  RH  066%=      5-min Rain = 0
KLA1 111142Z 04001KT 16/10 A3017 RMK A01 T01630096  RH  065%=      5-min Rain = 0
KLA1 111143Z 02002KT 16/09 A3017 RMK A01 T01590094  RH  065%=      5-min Rain = 0
KLA1 111144Z 01001KT 16/10 A3017 RMK A01 T01570095  RH  066%=      5-min Rain = 0
KLA1 111145Z 01000KT 16/09 A3017 RMK A01 T01550094  RH  067%=      5-min Rain = 0
KLA1 111146Z 01001KT 15/09 A3017 RMK A01 T01530094  RH  068%=      5-min Rain = 0
KLA1 111147Z 01001KT 15/10 A3017 RMK A01 T01520095  RH  069%=      5-min Rain = 0
KLA1 111148Z 01000KT 15/10 A3017 RMK A01 T01510095  RH  069%=      5-min Rain = 0
KLA1 111149Z 00000KT 15/09 A3017 RMK A01 T01500094  RH  069%=      5-min Rain = 0
KLA1 111150Z 01001KT 15/09 A3017 RMK A01 T01490094  RH  069%=      5-min Rain = 0
KLA1 111151Z 02000KT 15/09 A3017 RMK A01 T01490093  RH  069%=      5-min Rain = 0
KLA1 111152Z 02000KT 15/09 A3017 RMK A01 T01480093  RH  070%=      5-min Rain = 0
KLA1 111153Z 35000KT 15/10 A3017 RMK A01 T01470095  RH  071%=      5-min Rain = 0
KLA1 111154Z 36000KT 15/10 A3017 RMK A01 T01470096  RH  071%=      5-min Rain = 0
KLA1 111155Z 00000KT 15/09 A3017 RMK A01 T01470094  RH  071%=      5-min Rain = 0
KLA1 111156Z 00000KT 15/09 A3017 RMK A01 T01460094  RH  071%=      5-min Rain = 0
KLA1 111157Z 00000KT 15/10 A3017 RMK A01 T01460095  RH  071%=      5-min Rain = 0
KLA1 111158Z 00000KT 15/10 A3017 RMK A01 T01450095  RH  072%=      5-min Rain = 0
KLA1 111159Z 00000KT 15/10 A3017 RMK A01 T01450095  RH  072%=      5-min Rain = 0
KLA1 111200Z 00000KT 14/10 A3017 RMK A01 T01440096  RH  073%=      5-min Rain = 0
KLA1 111201Z 00000KT 14/10 A3017 RMK A01 T01440097  RH  073%=      5-min Rain = 0
KLA1 111202Z 00000KT 14/10 A3017 RMK A01 T01430096  RH  073%=      5-min Rain = 0
KLA1 111203Z 00000KT 14/10 A3017 RMK A01 T01420095  RH  073%=      5-min Rain = 0
KLA1 111204Z 00000KT 14/10 A3017 RMK A01 T01420095  RH  073%=      5-min Rain = 0
KLA1 111205Z 00000KT 14/10 A3017 RMK A01 T01420095  RH  073%=      5-min Rain = 0
KLA1 111206Z 00000KT 14/10 A3017 RMK A01 T01410095  RH  074%=      5-min Rain = 0
KLA1 111207Z 00000KT 14/10 A3017 RMK A01 T01410095  RH  074%=      5-min Rain = 0
KLA1 111208Z 00000KT 14/10 A3017 RMK A01 T01400095  RH  074%=      5-min Rain = 0
KLA1 111209Z 00000KT 14/10 A3017 RMK A01 T01410096  RH  074%=      5-min Rain = 0
KLA1 111210Z 35000KT 14/10 A3017 RMK A01 T01410096  RH  074%=      5-min Rain = 0
KLA1 111211Z 03001KT 14/10 A3017 RMK A01 T01410097  RH  074%=      5-min Rain = 0
KLA1 111212Z 03001KT 14/10 A3017 RMK A01 T01420097  RH  074%=      5-min Rain = 0
KLA1 111213Z 03001KT 14/10 A3017 RMK A01 T01430096  RH  073%=      5-min Rain = 0
KLA1 111214Z 02001KT 14/10 A3017 RMK A01 T01430096  RH  073%=      5-min Rain = 0
KLA1 111215Z 01001KT 14/10 A3017 RMK A01 T01430097  RH  074%=      5-min Rain = 0
KLA1 111216Z 00000KT 14/10 A3017 RMK A01 T01430096  RH  073%=      5-min Rain = 0
KLA1 111217Z 00000KT 14/10 A3017 RMK A01 T01430097  RH  073%=      5-min Rain = 0
KLA1 111218Z 00000KT 15/10 A3017 RMK A01 T01450098  RH  073%=      5-min Rain = 0
KLA1 111219Z 00000KT 15/10 A3017 RMK A01 T01460098  RH  073%=      5-min Rain = 0
KLA1 111220Z 00000KT 15/10 A3017 RMK A01 T01460098  RH  073%=      5-min Rain = 0
KLA1 111221Z 27000KT 15/10 A3017 RMK A01 T01450096  RH  073%=      5-min Rain = 0
KLA1 111222Z 00000KT 14/10 A3017 RMK A01 T01430096  RH  073%=      5-min Rain = 0
KLA1 111223Z 00000KT 14/10 A3017 RMK A01 T01430096  RH  073%=      5-min Rain = 0
KLA1 111224Z 00000KT 14/10 A3017 RMK A01 T01420095  RH  073%=      5-min Rain = 0
KLA1 111225Z 00000KT 14/10 A3017 RMK A01 T01410095  RH  074%=      5-min Rain = 0
KLA1 111226Z 00000KT 14/10 A3017 RMK A01 T01410096  RH  074%=      5-min Rain = 0
KLA1 111227Z 00000KT 14/10 A3017 RMK A01 T01400097  RH  075%=      5-min Rain = 0
KLA1 111228Z 02001KT 14/10 A3017 RMK A01 T01390097  RH  075%=      5-min Rain = 0
KLA1 111229Z 01002KT 14/10 A3017 RMK A01 T01390097  RH  075%=      5-min Rain = 0
KLA1 111230Z 01001KT 14/10 A3017 RMK A01 T01390096  RH  075%=      5-min Rain = 0
KLA1 111231Z 01001KT 14/10 A3017 RMK A01 T01400096  RH  075%=      5-min Rain = 0
KLA1 111232Z 03001KT 14/10 A3017 RMK A01 T01390095  RH  075%=      5-min Rain = 0
KLA1 111233Z 03000KT 14/10 A3017 RMK A01 T01390095  RH  075%=      5-min Rain = 0
KLA1 111234Z 00000KT 14/09 A3018 RMK A01 T01400094  RH  074%=      5-min Rain = 0
KLA1 111235Z 00000KT 14/09 A3018 RMK A01 T01390093  RH  074%=      5-min Rain = 0
KLA1 111236Z 00000KT 14/09 A3018 RMK A01 T01390092  RH  073%=      5-min Rain = 0
KLA1 111237Z 00000KT 14/09 A3018 RMK A01 T01380092  RH  074%=      5-min Rain = 0
KLA1 111238Z 00000KT 14/09 A3018 RMK A01 T01380093  RH  074%=      5-min Rain = 0
KLA1 111239Z 00000KT 14/09 A3018 RMK A01 T01370093  RH  075%=      5-min Rain = 0
KLA1 111240Z 03000KT 14/09 A3018 RMK A01 T01370094  RH  075%=      5-min Rain = 0
KLA1 111241Z 02002KT 14/09 A3018 RMK A01 T01370094  RH  076%=      5-min Rain = 0
KLA1 111242Z 01002KT 14/10 A3018 RMK A01 T01370095  RH  076%=      5-min Rain = 0
KLA1 111243Z 01001KT 14/09 A3018 RMK A01 T01370094  RH  076%=      5-min Rain = 0
KLA1 111244Z 01000KT 14/09 A3018 RMK A01 T01370094  RH  075%=      5-min Rain = 0
KLA1 111245Z 00000KT 14/10 A3018 RMK A01 T01370095  RH  075%=      5-min Rain = 0
KLA1 111246Z 28001KT 14/09 A3018 RMK A01 T01370094  RH  075%=      5-min Rain = 0
KLA1 111247Z 26001KT 14/09 A3018 RMK A01 T01380094  RH  075%=      5-min Rain = 0
KLA1 111248Z 25001KT 14/09 A3018 RMK A01 T01380094  RH  074%=      5-min Rain = 0
KLA1 111249Z 25001KT 14/09 A3018 RMK A01 T01380093  RH  074%=      5-min Rain = 0
KLA1 111250Z 25001KT 14/09 A3018 RMK A01 T01380092  RH  074%=      5-min Rain = 0
KLA1 111251Z 25001KT 14/09 A3018 RMK A01 T01380092  RH  074%=      5-min Rain = 0
KLA1 111252Z 25001KT 14/09 A3018 RMK A01 T01380092  RH  074%=      5-min Rain = 0
KLA1 111253Z 25001KT 14/09 A3018 RMK A01 T01370092  RH  074%=      5-min Rain = 0
KLA1 111254Z 25001KT 14/09 A3018 RMK A01 T01370092  RH  074%=      5-min Rain = 0
KLA1 111255Z 25001KT 14/09 A3018 RMK A01 T01370092  RH  074%=      5-min Rain = 0
KLA1 111256Z 25001KT 14/09 A3018 RMK A01 T01360091  RH  074%=      5-min Rain = 0
KLA1 111257Z 25001KT 14/09 A3018 RMK A01 T01360091  RH  074%=      5-min Rain = 0
KLA1 111258Z 25001KT 14/09 A3018 RMK A01 T01350091  RH  074%=      5-min Rain = 0
KLA1 111259Z 25001KT 14/09 A3018 RMK A01 T01350091  RH  075%=      5-min Rain = 0
KLA1 111300Z 25001KT 14/09 A3018 RMK A01 T01350092  RH  075%=      5-min Rain = 0
KLA1 111301Z 25000KT 14/09 A3018 RMK A01 T01350092  RH  075%=      5-min Rain = 0
KLA1 111302Z 25000KT 14/09 A3018 RMK A01 T01360092  RH  075%=      5-min Rain = 0
KLA1 111303Z 25000KT 14/09 A3018 RMK A01 T01360092  RH  074%=      5-min Rain = 0
KLA1 111304Z 28000KT 14/09 A3018 RMK A01 T01370092  RH  074%=      5-min Rain = 0
KLA1 111305Z 28000KT 14/09 A3018 RMK A01 T01370092  RH  074%=      5-min Rain = 0
KLA1 111306Z 28000KT 14/09 A3018 RMK A01 T01370092  RH  074%=      5-min Rain = 0
KLA1 111307Z 28000KT 14/09 A3018 RMK A01 T01380092  RH  074%=      5-min Rain = 0
KLA1 111308Z 28000KT 14/09 A3018 RMK A01 T01380093  RH  074%=      5-min Rain = 0
KLA1 111309Z 30000KT 14/09 A3018 RMK A01 T01390093  RH  073%=      5-min Rain = 0
KLA1 111310Z 30001KT 14/09 A3018 RMK A01 T01400093  RH  073%=      5-min Rain = 0
KLA1 111311Z 30000KT 14/09 A3018 RMK A01 T01410092  RH  073%=      5-min Rain = 0
KLA1 111312Z 29001KT 14/09 A3018 RMK A01 T01420093  RH  072%=      5-min Rain = 0
KLA1 111313Z 29002KT 14/09 A3019 RMK A01 T01420093  RH  072%=      5-min Rain = 0
KLA1 111314Z 29002KT 14/09 A3019 RMK A01 T01430093  RH  072%=      5-min Rain = 0
KLA1 111315Z 29002KT 14/09 A3019 RMK A01 T01440093  RH  072%=      5-min Rain = 0
KLA1 111316Z 29002KT 14/09 A3019 RMK A01 T01440093  RH  072%=      5-min Rain = 0
KLA1 111317Z 28002KT 15/09 A3019 RMK A01 T01450094  RH  072%=      5-min Rain = 0
KLA1 111318Z 29002KT 15/09 A3019 RMK A01 T01450094  RH  071%=      5-min Rain = 0
KLA1 111319Z 29001KT 15/09 A3019 RMK A01 T01450094  RH  071%=      5-min Rain = 0
KLA1 111320Z 28001KT 15/09 A3019 RMK A01 T01460094  RH  071%=      5-min Rain = 0
KLA1 111321Z 29001KT 15/09 A3019 RMK A01 T01470094  RH  071%=      5-min Rain = 0
KLA1 111322Z 28001KT 15/09 A3019 RMK A01 T01480094  RH  070%=      5-min Rain = 0
KLA1 111323Z 29001KT 15/10 A3019 RMK A01 T01490095  RH  070%=      5-min Rain = 0
KLA1 111324Z 28001KT 15/09 A3019 RMK A01 T01500094  RH  069%=      5-min Rain = 0
KLA1 111325Z 28001KT 15/09 A3019 RMK A01 T01500094  RH  069%=      5-min Rain = 0
KLA1 111326Z 28001KT 15/10 A3019 RMK A01 T01510095  RH  069%=      5-min Rain = 0
KLA1 111327Z 29001KT 15/10 A3019 RMK A01 T01530096  RH  069%=      5-min Rain = 0
KLA1 111328Z 29001KT 15/10 A3019 RMK A01 T01530096  RH  068%=      5-min Rain = 0
KLA1 111329Z 28001KT 16/10 A3019 RMK A01 T01550096  RH  068%=      5-min Rain = 0
KLA1 111330Z 28000KT 16/10 A3019 RMK A01 T01550096  RH  068%=      5-min Rain = 0
KLA1 111331Z 28000KT 16/10 A3019 RMK A01 T01560096  RH  067%=      5-min Rain = 0
KLA1 111332Z 26000KT 16/10 A3019 RMK A01 T01570096  RH  067%=      5-min Rain = 0
KLA1 111333Z 00000KT 16/10 A3019 RMK A01 T01580096  RH  067%=      5-min Rain = 0
KLA1 111334Z 00000KT 16/10 A3019 RMK A01 T01580096  RH  067%=      5-min Rain = 0
KLA1 111335Z 25000KT 16/10 A3019 RMK A01 T01580096  RH  067%=      5-min Rain = 0
KLA1 111336Z 25000KT 16/10 A3019 RMK A01 T01580096  RH  067%=      5-min Rain = 0
KLA1 111337Z 25000KT 16/10 A3019 RMK A01 T01580097  RH  067%=      5-min Rain = 0
KLA1 111338Z 00000KT 16/10 A3019 RMK A01 T01580097  RH  067%=      5-min Rain = 0
KLA1 111339Z 28000KT 16/10 A3019 RMK A01 T01590097  RH  067%=      5-min Rain = 0
KLA1 111340Z 22000KT 16/10 A3019 RMK A01 T01590097  RH  067%=      5-min Rain = 0
KLA1 111341Z 24000KT 16/10 A3019 RMK A01 T01600098  RH  066%=      5-min Rain = 0
KLA1 111342Z 00000KT 16/10 A3019 RMK A01 T01610098  RH  066%=      5-min Rain = 0
KLA1 111343Z 00000KT 16/10 A3019 RMK A01 T01620099  RH  066%=      5-min Rain = 0
KLA1 111344Z 00000KT 16/10 A3019 RMK A01 T01640100  RH  066%=      5-min Rain = 0
KLA1 111345Z 22000KT 17/10 A3019 RMK A01 T01670100  RH  065%=      5-min Rain = 0
KLA1 111346Z 20001KT 17/10 A3019 RMK A01 T01670099  RH  064%=      5-min Rain = 0
KLA1 111347Z 21001KT 17/10 A3019 RMK A01 T01680100  RH  064%=      5-min Rain = 0
KLA1 111348Z 22001KT 17/10 A3019 RMK A01 T01690101  RH  064%=      5-min Rain = 0
KLA1 111349Z 27000KT 17/10 A3019 RMK A01 T01690100  RH  064%=      5-min Rain = 0
KLA1 111350Z 22000KT 17/10 A3019 RMK A01 T01700101  RH  064%=      5-min Rain = 0
KLA1 111351Z 21000KT 17/10 A3019 RMK A01 T01710101  RH  063%=      5-min Rain = 0
KLA1 111352Z 00000KT 17/10 A3019 RMK A01 T01720102  RH  063%=      5-min Rain = 0
KLA1 111353Z 23000KT 17/10 A3019 RMK A01 T01720101  RH  063%=      5-min Rain = 0
KLA1 111354Z 23001KT 17/10 A3019 RMK A01 T01720101  RH  063%=      5-min Rain = 0
KLA1 111355Z 22000KT 17/10 A3019 RMK A01 T01730102  RH  063%=      5-min Rain = 0
KLA1 111356Z 00000KT 17/10 A3019 RMK A01 T01730101  RH  063%=      5-min Rain = 0
KLA1 111357Z 00000KT 17/10 A3019 RMK A01 T01740102  RH  063%=      5-min Rain = 0
KLA1 111358Z 00000KT 18/10 A3019 RMK A01 T01750102  RH  062%=      5-min Rain = 0
KLA1 111359Z 23000KT 18/10 A3019 RMK A01 T01760102  RH  062%=      5-min Rain = 0
KLA1 111400Z 21000KT 18/10 A3019 RMK A01 T01770103  RH  062%=      5-min Rain = 0
KLA1 111401Z 21000KT 18/10 A3019 RMK A01 T01780103  RH  061%=      5-min Rain = 0
KLA1 111402Z 25000KT 18/10 A3019 RMK A01 T01790103  RH  061%=      5-min Rain = 0
KLA1 111403Z 27000KT 18/11 A3019 RMK A01 T01810105  RH  061%=      5-min Rain = 0
KLA1 111404Z 24000KT 18/11 A3019 RMK A01 T01830105  RH  061%=      5-min Rain = 0
KLA1 111405Z 20000KT 18/10 A3019 RMK A01 T01840104  RH  060%=      5-min Rain = 0
KLA1 111406Z 20001KT 18/10 A3019 RMK A01 T01840104  RH  059%=      5-min Rain = 0
KLA1 111407Z 19001KT 19/10 A3019 RMK A01 T01850104  RH  059%=      5-min Rain = 0
KLA1 111408Z 18000KT 19/10 A3019 RMK A01 T01860104  RH  059%=      5-min Rain = 0
KLA1 111409Z 17000KT 19/10 A3019 RMK A01 T01870104  RH  058%=      5-min Rain = 0
KLA1 111410Z 00000KT 19/10 A3019 RMK A01 T01870104  RH  058%=      5-min Rain = 0
KLA1 111411Z 00000KT 19/11 A3019 RMK A01 T01880105  RH  058%=      5-min Rain = 0
KLA1 111412Z 00000KT 19/11 A302 RMK A01 T01880105  RH  058%=      5-min Rain = 0
KLA1 111413Z 00000KT 19/11 A302 RMK A01 T01900105  RH  058%=      5-min Rain = 0
KLA1 111414Z 00000KT 19/11 A302 RMK A01 T01910106  RH  058%=      5-min Rain = 0
KLA1 111415Z 00000KT 19/11 A302 RMK A01 T01940107  RH  057%=      5-min Rain = 0
KLA1 111416Z 00000KT 20/11 A302 RMK A01 T01960107  RH  056%=      5-min Rain = 0
KLA1 111417Z 23000KT 20/11 A302 RMK A01 T01970107  RH  056%=      5-min Rain = 0
KLA1 111418Z 24000KT 20/11 A302 RMK A01 T01980107  RH  055%=      5-min Rain = 0
KLA1 111419Z 27000KT 20/11 A3019 RMK A01 T01990108  RH  055%=      5-min Rain = 0
KLA1 111420Z 20000KT 20/11 A3019 RMK A01 T02000107  RH  055%=      5-min Rain = 0
KLA1 111421Z 20000KT 20/11 A302 RMK A01 T02000107  RH  055%=      5-min Rain = 0
KLA1 111422Z 23000KT 20/11 A3019 RMK A01 T02000108  RH  055%=      5-min Rain = 0
KLA1 111423Z 00000KT 20/11 A3019 RMK A01 T02010107  RH  055%=      5-min Rain = 0
KLA1 111424Z 18000KT 20/11 A302 RMK A01 T02020108  RH  054%=      5-min Rain = 0
KLA1 111425Z 00000KT 20/11 A3019 RMK A01 T02030106  RH  054%=      5-min Rain = 0
KLA1 111426Z 00000KT 21/11 A3019 RMK A01 T02050108  RH  054%=      5-min Rain = 0
KLA1 111427Z 21001KT 21/11 A3019 RMK A01 T02060108  RH  053%=      5-min Rain = 0
KLA1 111428Z 22001KT 21/11 A3019 RMK A01 T02060108  RH  053%=      5-min Rain = 0
KLA1 111429Z 22000KT 21/11 A3019 RMK A01 T02060108  RH  054%=      5-min Rain = 0
KLA1 111430Z 22000KT 21/11 A3019 RMK A01 T02060108  RH  054%=      5-min Rain = 0
KLA1 111431Z 23001KT 21/11 A3019 RMK A01 T02060109  RH  054%=      5-min Rain = 0
KLA1 111432Z 19001KT 21/11 A3019 RMK A01 T02060108  RH  053%=      5-min Rain = 0
KLA1 111433Z 18001KT 21/11 A3019 RMK A01 T02060107  RH  053%=      5-min Rain = 0
KLA1 111434Z 20000KT 21/11 A3019 RMK A01 T02060107  RH  053%=      5-min Rain = 0
KLA1 111435Z 24000KT 21/11 A3019 RMK A01 T02070108  RH  053%=      5-min Rain = 0
KLA1 111436Z 19001KT 21/11 A3019 RMK A01 T02080109  RH  053%=      5-min Rain = 0
KLA1 111437Z 22000KT 21/11 A3019 RMK A01 T02090108  RH  052%=      5-min Rain = 0
KLA1 111438Z 24001KT 21/11 A3019 RMK A01 T02100109  RH  052%=      5-min Rain = 0
KLA1 111439Z 22001KT 21/11 A3019 RMK A01 T02110109  RH  052%=      5-min Rain = 0
KLA1 111440Z 21002KT 21/11 A3019 RMK A01 T02110109  RH  052%=      5-min Rain = 0
KLA1 111441Z 23001KT 21/11 A3019 RMK A01 T02110110  RH  052%=      5-min Rain = 0
KLA1 111442Z 22001KT 21/11 A3019 RMK A01 T02110110  RH  052%=      5-min Rain = 0
KLA1 111443Z 25001KT 21/11 A3019 RMK A01 T02110110  RH  053%=      5-min Rain = 0
KLA1 111444Z 26000KT 21/11 A3019 RMK A01 T02110110  RH  052%=      5-min Rain = 0
KLA1 111445Z 24001KT 21/11 A3019 RMK A01 T02120111  RH  052%=      5-min Rain = 0
KLA1 111446Z 26001KT 21/11 A3019 RMK A01 T02120111  RH  052%=      5-min Rain = 0
KLA1 111447Z 24000KT 21/11 A3019 RMK A01 T02130112  RH  052%=      5-min Rain = 0
KLA1 111448Z 31000KT 21/11 A3019 RMK A01 T02140112  RH  052%=      5-min Rain = 0
KLA1 111449Z 33000KT 22/11 A3019 RMK A01 T02150112  RH  052%=      5-min Rain = 0
KLA1 111450Z 33000KT 22/11 A3019 RMK A01 T02170113  RH  052%=      5-min Rain = 0
KLA1 111451Z 12002KT 22/11 A3019 RMK A01 T02180113  RH  051%=      5-min Rain = 0
KLA1 111452Z 13002KT 22/11 A3019 RMK A01 T02190113  RH  051%=      5-min Rain = 0
KLA1 111453Z 13002KT 22/11 A3019 RMK A01 T02190113  RH  051%=      5-min Rain = 0
KLA1 111454Z 12001KT 22/11 A3019 RMK A01 T02200113  RH  051%=      5-min Rain = 0
KLA1 111455Z 09000KT 22/11 A3019 RMK A01 T02210114  RH  051%=      5-min Rain = 0
KLA1 111456Z 15001KT 22/12 A3019 RMK A01 T02230116  RH  051%=      5-min Rain = 0
KLA1 111457Z 19002KT 23/12 A3019 RMK A01 T02250117  RH  050%=      5-min Rain = 0
KLA1 111458Z 19002KT 22/12 A3019 RMK A01 T02240115  RH  050%=      5-min Rain = 0
KLA1 111459Z 17001KT 22/12 A3019 RMK A01 T02220116  RH  051%=      5-min Rain = 0
KLA1 111500Z 19000KT 22/12 A3019 RMK A01 T02220116  RH  051%=      5-min Rain = 0
KLA1 111501Z 18003KT 22/12 A3019 RMK A01 T02230115  RH  050%=      5-min Rain = 0
KLA1 111502Z 19001KT 22/12 A3019 RMK A01 T02240116  RH  050%=      5-min Rain = 0
KLA1 111503Z 25001KT 22/12 A3019 RMK A01 T02230115  RH  050%=      5-min Rain = 0
KLA1 111504Z 25001KT 22/12 A3019 RMK A01 T02230117  RH  051%=      5-min Rain = 0
KLA1 111505Z 27000KT 23/12 A3019 RMK A01 T02250116  RH  050%=      5-min Rain = 0
KLA1 111506Z 13002KT 23/12 A3019 RMK A01 T02260117  RH  050%=      5-min Rain = 0
KLA1 111507Z 14002KT 23/12 A3019 RMK A01 T02280118  RH  050%=      5-min Rain = 0
KLA1 111508Z 13003KT 23/12 A3019 RMK A01 T02290118  RH  049%=      5-min Rain = 0
KLA1 111509Z 13002KT 23/12 A3019 RMK A01 T02290117  RH  049%=      5-min Rain = 0
KLA1 111510Z 14002KT 23/12 A3019 RMK A01 T02290118  RH  049%=      5-min Rain = 0
KLA1 111511Z 13001KT 23/12 A3019 RMK A01 T02290117  RH  049%=      5-min Rain = 0
KLA1 111512Z 18002KT 23/12 A3019 RMK A01 T02300118  RH  049%=      5-min Rain = 0
KLA1 111513Z 21001KT 23/12 A3019 RMK A01 T02300118  RH  049%=      5-min Rain = 0
KLA1 111514Z 17001KT 23/12 A3019 RMK A01 T02300119  RH  050%=      5-min Rain = 0
KLA1 111515Z 16001KT 23/12 A3019 RMK A01 T02300118  RH  049%=      5-min Rain = 0
KLA1 111516Z 23001KT 23/12 A3019 RMK A01 T02300118  RH  049%=      5-min Rain = 0
KLA1 111517Z 22002KT 23/12 A3019 RMK A01 T02300119  RH  049%=      5-min Rain = 0
KLA1 111518Z 21001KT 23/12 A3019 RMK A01 T02310120  RH  050%=      5-min Rain = 0
KLA1 111519Z 26001KT 23/12 A3019 RMK A01 T02330121  RH  049%=      5-min Rain = 0
KLA1 111520Z 30000KT 23/12 A3019 RMK A01 T02340121  RH  049%=      5-min Rain = 0
KLA1 111521Z 08001KT 24/12 A3019 RMK A01 T02360121  RH  048%=      5-min Rain = 0
KLA1 111522Z 11002KT 24/12 A3019 RMK A01 T02360120  RH  048%=      5-min Rain = 0
KLA1 111523Z 15002KT 24/12 A3019 RMK A01 T02360121  RH  048%=      5-min Rain = 0
KLA1 111524Z 14003KT 24/12 A3019 RMK A01 T02370120  RH  048%=      5-min Rain = 0
KLA1 111525Z 16002KT 24/12 A3019 RMK A01 T02370121  RH  048%=      5-min Rain = 0
KLA1 111526Z 17001KT 24/12 A3019 RMK A01 T02370122  RH  048%=      5-min Rain = 0
KLA1 111527Z 15002KT 24/12 A3019 RMK A01 T02380121  RH  048%=      5-min Rain = 0
KLA1 111528Z 18001KT 24/12 A3019 RMK A01 T02380121  RH  048%=      5-min Rain = 0
KLA1 111529Z 09001KT 24/12 A3019 RMK A01 T02390122  RH  048%=      5-min Rain = 0
KLA1 111530Z 14002KT 24/13 A3019 RMK A01 T02400125  RH  049%=      5-min Rain = 0
KLA1 111531Z 21003KT 24/12 A3019 RMK A01 T02420123  RH  047%=      5-min Rain = 0
KLA1 111532Z 19002KT 24/12 A3019 RMK A01 T02420123  RH  047%=      5-min Rain = 0
KLA1 111533Z 10004KT 24/12 A3019 RMK A01 T02420124  RH  048%=      5-min Rain = 0
KLA1 111534Z 08003KT 24/12 A3019 RMK A01 T02420122  RH  047%=      5-min Rain = 0
KLA1 111535Z 09003KT 24/12 A3019 RMK A01 T02410122  RH  047%=      5-min Rain = 0
KLA1 111536Z 08002KT 24/12 A3019 RMK A01 T02410122  RH  047%=      5-min Rain = 0
KLA1 111537Z 14002KT 24/12 A3019 RMK A01 T02410123  RH  048%=      5-min Rain = 0
KLA1 111538Z 16002KT 24/12 A3019 RMK A01 T02420123  RH  047%=      5-min Rain = 0
KLA1 111539Z 19003KT 24/12 A3019 RMK A01 T02440123  RH  047%=      5-min Rain = 0
KLA1 111540Z 20002KT 25/12 A3019 RMK A01 T02450124  RH  047%=      5-min Rain = 0
KLA1 111541Z 15003KT 25/13 A3019 RMK A01 T02450125  RH  047%=      5-min Rain = 0
KLA1 111542Z 15003KT 25/12 A3019 RMK A01 T02460124  RH  047%=      5-min Rain = 0
KLA1 111543Z 13004KT 25/12 A3019 RMK A01 T02460124  RH  047%=      5-min Rain = 0
KLA1 111544Z 14003KT 25/13 A3019 RMK A01 T02460126  RH  047%=      5-min Rain = 0
KLA1 111545Z 13005KT 25/13 A3019 RMK A01 T02460125  RH  047%=      5-min Rain = 0
KLA1 111546Z 16005KT 25/13 A3019 RMK A01 T02470125  RH  047%=      5-min Rain = 0
KLA1 111547Z 16003KT 25/12 A3019 RMK A01 T02470124  RH  046%=      5-min Rain = 0
KLA1 111548Z 16001KT 25/12 A3019 RMK A01 T02470124  RH  046%=      5-min Rain = 0
KLA1 111549Z 10000KT 25/12 A3019 RMK A01 T02480124  RH  046%=      5-min Rain = 0
KLA1 111550Z 12001KT 25/13 A3019 RMK A01 T02500125  RH  046%=      5-min Rain = 0
KLA1 111551Z 17003KT 25/13 A3019 RMK A01 T02520125  RH  045%=      5-min Rain = 0
KLA1 111552Z 19004KT 25/12 A3019 RMK A01 T02520124  RH  045%=      5-min Rain = 0
KLA1 111553Z 20004KT 25/12 A3019 RMK A01 T02510123  RH  045%=      5-min Rain = 0
KLA1 111554Z 21003KT 25/12 A3019 RMK A01 T02500124  RH  046%=      5-min Rain = 0
KLA1 111555Z 20005KT 25/12 A3019 RMK A01 T02490124  RH  046%=      5-min Rain = 0
KLA1 111556Z 20005KT 25/12 A3019 RMK A01 T02500123  RH  045%=      5-min Rain = 0
KLA1 111557Z 20004KT 25/12 A3019 RMK A01 T02490123  RH  045%=      5-min Rain = 0
KLA1 111558Z 16004KT 25/13 A3019 RMK A01 T02490125  RH  046%=      5-min Rain = 0
KLA1 111559Z 17003KT 25/13 A3019 RMK A01 T02500126  RH  046%=      5-min Rain = 0
KLA1 111600Z 16004KT 25/13 A3019 RMK A01 T02530125  RH  045%=      5-min Rain = 0
KLA1 111601Z 16004KT 25/12 A3019 RMK A01 T02540123  RH  044%=      5-min Rain = 0
KLA1 111602Z 17003KT 25/12 A3019 RMK A01 T02540123  RH  044%=      5-min Rain = 0
KLA1 111603Z 18002KT 25/12 A3019 RMK A01 T02520122  RH  044%=      5-min Rain = 0
KLA1 111604Z 20003KT 25/12 A3019 RMK A01 T02520121  RH  044%=      5-min Rain = 0
KLA1 111605Z 19001KT 25/12 A3019 RMK A01 T02510121  RH  045%=      5-min Rain = 0
KLA1 111606Z 10001KT 25/12 A3019 RMK A01 T02500123  RH  045%=      5-min Rain = 0
KLA1 111607Z 09002KT 25/12 A3019 RMK A01 T02530124  RH  045%=      5-min Rain = 0
KLA1 111608Z 12002KT 26/12 A3019 RMK A01 T02550124  RH  044%=      5-min Rain = 0
KLA1 111609Z 14001KT 26/12 A3019 RMK A01 T02560123  RH  044%=      5-min Rain = 0
KLA1 111610Z 13001KT 26/12 A3019 RMK A01 T02560122  RH  043%=      5-min Rain = 0
KLA1 111611Z 23002KT 26/12 A3019 RMK A01 T02570124  RH  044%=      5-min Rain = 0
KLA1 111612Z 21004KT 26/13 A3019 RMK A01 T02580126  RH  044%=      5-min Rain = 0
KLA1 111613Z 23004KT 26/12 A3019 RMK A01 T02570124  RH  043%=      5-min Rain = 0
KLA1 111614Z 24003KT 26/12 A3019 RMK A01 T02550122  RH  044%=      5-min Rain = 0
KLA1 111615Z 28001KT 25/12 A3019 RMK A01 T02540123  RH  044%=      5-min Rain = 0
KLA1 111616Z 26002KT 25/12 A3019 RMK A01 T02540123  RH  044%=      5-min Rain = 0
KLA1 111617Z 26003KT 26/12 A3019 RMK A01 T02570123  RH  043%=      5-min Rain = 0
KLA1 111618Z 27002KT 26/12 A3019 RMK A01 T02580123  RH  043%=      5-min Rain = 0
KLA1 111619Z 28001KT 26/12 A3019 RMK A01 T02570124  RH  044%=      5-min Rain = 0
KLA1 111620Z 23003KT 26/12 A3019 RMK A01 T02570124  RH  044%=      5-min Rain = 0
KLA1 111621Z 22001KT 26/13 A3019 RMK A01 T02600125  RH  043%=      5-min Rain = 0
KLA1 111622Z 24001KT 26/12 A3019 RMK A01 T02620124  RH  042%=      5-min Rain = 0
KLA1 111623Z 26001KT 26/13 A3019 RMK A01 T02620125  RH  042%=      5-min Rain = 0
KLA1 111624Z 29000KT 26/13 A3019 RMK A01 T02630125  RH  042%=      5-min Rain = 0
KLA1 111625Z 09000KT 27/12 A3019 RMK A01 T02650124  RH  042%=      5-min Rain = 0
KLA1 111626Z 09002KT 27/12 A3019 RMK A01 T02670124  RH  041%=      5-min Rain = 0
KLA1 111627Z 10002KT 27/12 A3019 RMK A01 T02660122  RH  041%=      5-min Rain = 0
KLA1 111628Z 11001KT 27/12 A3019 RMK A01 T02650122  RH  041%=      5-min Rain = 0
KLA1 111629Z 08000KT 26/12 A3019 RMK A01 T02640122  RH  041%=      5-min Rain = 0
KLA1 111630Z 18002KT 27/12 A3018 RMK A01 T02650122  RH  041%=      5-min Rain = 0
KLA1 111631Z 19003KT 27/12 A3018 RMK A01 T02650123  RH  041%=      5-min Rain = 0
KLA1 111632Z 20004KT 27/12 A3018 RMK A01 T02650124  RH  042%=      5-min Rain = 0
KLA1 111633Z 19002KT 27/12 A3018 RMK A01 T02660123  RH  041%=      5-min Rain = 0
KLA1 111634Z 22004KT 27/12 A3018 RMK A01 T02650124  RH  042%=      5-min Rain = 0
KLA1 111635Z 24003KT 26/12 A3018 RMK A01 T02640124  RH  042%=      5-min Rain = 0
KLA1 111636Z 26002KT 26/12 A3018 RMK A01 T02630122  RH  041%=      5-min Rain = 0
KLA1 111637Z 30002KT 26/12 A3018 RMK A01 T02630124  RH  042%=      5-min Rain = 0
KLA1 111638Z 25002KT 27/12 A3018 RMK A01 T02650124  RH  041%=      5-min Rain = 0
KLA1 111639Z 23005KT 27/12 A3018 RMK A01 T02670123  RH  041%=      5-min Rain = 0
KLA1 111640Z 23006KT 27/12 A3018 RMK A01 T02680122  RH  040%=      5-min Rain = 0
KLA1 111641Z 23004KT 27/12 A3018 RMK A01 T02660121  RH  040%=      5-min Rain = 0
KLA1 111642Z 20005KT 27/12 A3018 RMK A01 T02650121  RH  041%=      5-min Rain = 0
KLA1 111643Z 21001KT 26/12 A3018 RMK A01 T02630119  RH  041%=      5-min Rain = 0
KLA1 111644Z 21003KT 26/12 A3018 RMK A01 T02620120  RH  041%=      5-min Rain = 0
KLA1 111645Z 20004KT 26/12 A3018 RMK A01 T02620120  RH  041%=      5-min Rain = 0
KLA1 111646Z 22003KT 26/12 A3018 RMK A01 T02620121  RH  041%=      5-min Rain = 0
KLA1 111647Z 23001KT 26/12 A3018 RMK A01 T02620120  RH  041%=      5-min Rain = 0
KLA1 111648Z 33000KT 26/12 A3018 RMK A01 T02620119  RH  041%=      5-min Rain = 0
KLA1 111649Z 32002KT 26/12 A3018 RMK A01 T02630120  RH  041%=      5-min Rain = 0
KLA1 111650Z 35002KT 27/12 A3018 RMK A01 T02650122  RH  041%=      5-min Rain = 0
KLA1 111651Z 34002KT 27/12 A3018 RMK A01 T02670121  RH  040%=      5-min Rain = 0
KLA1 111652Z 25001KT 27/12 A3018 RMK A01 T02680122  RH  040%=      5-min Rain = 0
KLA1 111653Z 22005KT 27/12 A3018 RMK A01 T02700123  RH  040%=      5-min Rain = 0
KLA1 111654Z 21003KT 27/12 A3018 RMK A01 T02690122  RH  040%=      5-min Rain = 0
KLA1 111655Z 19002KT 27/12 A3018 RMK A01 T02660122  RH  041%=      5-min Rain = 0
KLA1 111656Z 24002KT 26/12 A3018 RMK A01 T02640121  RH  041%=      5-min Rain = 0
KLA1 111657Z 22001KT 26/12 A3018 RMK A01 T02640121  RH  041%=      5-min Rain = 0
KLA1 111658Z 23000KT 26/12 A3018 RMK A01 T02640119  RH  040%=      5-min Rain = 0
KLA1 111659Z 34000KT 27/12 A3018 RMK A01 T02660119  RH  040%=      5-min Rain = 0
KLA1 111700Z 33000KT 27/12 A3018 RMK A01 T02680119  RH  039%=      5-min Rain = 0
KLA1 111701Z 01000KT 27/12 A3018 RMK A01 T02690118  RH  039%=      5-min Rain = 0
KLA1 111702Z 02002KT 27/12 A3018 RMK A01 T02720120  RH  039%=      5-min Rain = 0
KLA1 111703Z 03002KT 27/12 A3018 RMK A01 T02740121  RH  039%=      5-min Rain = 0
KLA1 111704Z 02003KT 28/12 A3018 RMK A01 T02750122  RH  039%=      5-min Rain = 0
KLA1 111705Z 02003KT 28/12 A3018 RMK A01 T02750122  RH  039%=      5-min Rain = 0
KLA1 111706Z 04002KT 28/12 A3018 RMK A01 T02750123  RH  039%=      5-min Rain = 0
KLA1 111707Z 32000KT 28/12 A3018 RMK A01 T02750120  RH  038%=      5-min Rain = 0
KLA1 111708Z 28002KT 28/12 A3018 RMK A01 T02750121  RH  038%=      5-min Rain = 0
KLA1 111709Z 27001KT 28/12 A3018 RMK A01 T02750121  RH  038%=      5-min Rain = 0
KLA1 111710Z 30000KT 28/12 A3017 RMK A01 T02750121  RH  039%=      5-min Rain = 0
KLA1 111711Z 35002KT 28/12 A3017 RMK A01 T02750120  RH  038%=      5-min Rain = 0
KLA1 111712Z 01002KT 28/12 A3017 RMK A01 T02750121  RH  038%=      5-min Rain = 0
KLA1 111713Z 01002KT 28/12 A3017 RMK A01 T02750118  RH  038%=      5-min Rain = 0
KLA1 111714Z 33001KT 28/12 A3017 RMK A01 T02750118  RH  038%=      5-min Rain = 0
KLA1 111715Z 36000KT 28/12 A3017 RMK A01 T02750118  RH  038%=      5-min Rain = 0
KLA1 111716Z 04002KT 28/12 A3017 RMK A01 T02760118  RH  038%=      5-min Rain = 0
KLA1 111717Z 04002KT 28/12 A3017 RMK A01 T02750118  RH  038%=      5-min Rain = 0
KLA1 111718Z 10002KT 27/12 A3017 RMK A01 T02740118  RH  038%=      5-min Rain = 0
KLA1 111719Z 09004KT 27/12 A3017 RMK A01 T02730117  RH  038%=      5-min Rain = 0
KLA1 111720Z 07002KT 27/12 A3017 RMK A01 T02720117  RH  038%=      5-min Rain = 0
KLA1 111721Z 10002KT 27/12 A3017 RMK A01 T02710117  RH  038%=      5-min Rain = 0
KLA1 111722Z 08003KT 27/12 A3017 RMK A01 T02710117  RH  038%=      5-min Rain = 0
KLA1 111723Z 08002KT 27/12 A3017 RMK A01 T02720117  RH  038%=      5-min Rain = 0
KLA1 111724Z 07004KT 27/12 A3017 RMK A01 T02730117  RH  038%=      5-min Rain = 0
KLA1 111725Z 07004KT 27/12 A3017 RMK A01 T02730117  RH  038%=      5-min Rain = 0
KLA1 111726Z 03005KT 27/12 A3017 RMK A01 T02740119  RH  038%=      5-min Rain = 0
KLA1 111727Z 02003KT 27/12 A3017 RMK A01 T02740119  RH  038%=      5-min Rain = 0
KLA1 111728Z 06003KT 28/12 A3017 RMK A01 T02760119  RH  038%=      5-min Rain = 0
KLA1 111729Z 07004KT 28/12 A3017 RMK A01 T02760118  RH  037%=      5-min Rain = 0
KLA1 111730Z 10002KT 28/12 A3017 RMK A01 T02760118  RH  037%=      5-min Rain = 0
KLA1 111731Z 15003KT 28/12 A3017 RMK A01 T02770117  RH  037%=      5-min Rain = 0
KLA1 111732Z 16001KT 28/12 A3017 RMK A01 T02770116  RH  037%=      5-min Rain = 0
KLA1 111733Z 27004KT 28/12 A3017 RMK A01 T02790117  RH  037%=      5-min Rain = 0
KLA1 111734Z 25003KT 28/12 A3016 RMK A01 T02790117  RH  036%=      5-min Rain = 0
KLA1 111735Z 28004KT 28/12 A3016 RMK A01 T02800117  RH  037%=      5-min Rain = 0
KLA1 111736Z 30004KT 28/12 A3016 RMK A01 T02810120  RH  037%=      5-min Rain = 0
KLA1 111737Z 30006KT 29/12 A3016 RMK A01 T02850119  RH  036%=      5-min Rain = 0
KLA1 111738Z 29006KT 29/12 A3016 RMK A01 T02870119  RH  035%=      5-min Rain = 0
KLA1 111739Z 30006KT 29/12 A3016 RMK A01 T02880118  RH  035%=      5-min Rain = 0
KLA1 111740Z 29007KT 29/12 A3016 RMK A01 T02880118  RH  035%=      5-min Rain = 0
KLA1 111741Z 26004KT 29/12 A3016 RMK A01 T02870117  RH  035%=      5-min Rain = 0
KLA1 111742Z 22003KT 29/12 A3016 RMK A01 T02850117  RH  035%=      5-min Rain = 0
KLA1 111743Z 19002KT 28/12 A3016 RMK A01 T02830116  RH  036%=      5-min Rain = 0
KLA1 111744Z 22003KT 28/12 A3016 RMK A01 T02820118  RH  036%=      5-min Rain = 0
KLA1 111745Z 29003KT 28/12 A3016 RMK A01 T02820118  RH  036%=      5-min Rain = 0
KLA1 111746Z 31003KT 28/12 A3016 RMK A01 T02840119  RH  036%=      5-min Rain = 0
KLA1 111747Z 31004KT 29/12 A3016 RMK A01 T02870118  RH  035%=      5-min Rain = 0
KLA1 111748Z 34003KT 29/12 A3016 RMK A01 T02880118  RH  035%=      5-min Rain = 0
KLA1 111749Z 02003KT 29/12 A3016 RMK A01 T02880118  RH  035%=      5-min Rain = 0
KLA1 111750Z 02003KT 29/12 A3016 RMK A01 T02870117  RH  035%=      5-min Rain = 0
KLA1 111751Z 03002KT 29/12 A3016 RMK A01 T02850117  RH  035%=      5-min Rain = 0
KLA1 111752Z 02001KT 28/12 A3016 RMK A01 T02830117  RH  036%=      5-min Rain = 0
KLA1 111753Z 32001KT 28/12 A3016 RMK A01 T02840119  RH  036%=      5-min Rain = 0
KLA1 111754Z 30003KT 29/12 A3016 RMK A01 T02860119  RH  036%=      5-min Rain = 0
KLA1 111755Z 32005KT 29/12 A3016 RMK A01 T02900120  RH  035%=      5-min Rain = 0
KLA1 111756Z 34004KT 29/12 A3016 RMK A01 T02920118  RH  034%=      5-min Rain = 0
KLA1 111757Z 33004KT 29/12 A3016 RMK A01 T02910118  RH  034%=      5-min Rain = 0
KLA1 111758Z 00003KT 29/12 A3016 RMK A01 T02900118  RH  034%=      5-min Rain = 0
KLA1 111759Z 02006KT 29/12 A3016 RMK A01 T02900120  RH  035%=      5-min Rain = 0
KLA1 111800Z 02005KT 29/12 A3016 RMK A01 T02910121  RH  035%=      5-min Rain = 0
KLA1 111801Z 02006KT 29/12 A3016 RMK A01 T02910120  RH  035%=      5-min Rain = 0
KLA1 111802Z 03002KT 29/12 A3016 RMK A01 T02890119  RH  035%=      5-min Rain = 0
KLA1 111803Z 00001KT 29/12 A3016 RMK A01 T02880118  RH  035%=      5-min Rain = 0
KLA1 111804Z 34002KT 29/12 A3016 RMK A01 T02880117  RH  035%=      5-min Rain = 0
KLA1 111805Z 28001KT 29/12 A3016 RMK A01 T02870118  RH  035%=      5-min Rain = 0
KLA1 111806Z 13001KT 29/12 A3015 RMK A01 T02870119  RH  035%=      5-min Rain = 0
KLA1 111807Z 12002KT 29/12 A3015 RMK A01 T02900118  RH  034%=      5-min Rain = 0
KLA1 111808Z 19001KT 29/12 A3015 RMK A01 T02890116  RH  034%=      5-min Rain = 0
KLA1 111809Z 13001KT 29/12 A3015 RMK A01 T02890117  RH  035%=      5-min Rain = 0
KLA1 111810Z 13003KT 29/12 A3015 RMK A01 T02890119  RH  035%=      5-min Rain = 0
KLA1 111811Z 16003KT 29/12 A3015 RMK A01 T02900118  RH  034%=      5-min Rain = 0
KLA1 111812Z 19004KT 29/12 A3015 RMK A01 T02910118  RH  034%=      5-min Rain = 0
KLA1 111813Z 18003KT 29/12 A3015 RMK A01 T02910117  RH  034%=      5-min Rain = 0
KLA1 111814Z 12003KT 29/12 A3015 RMK A01 T02910117  RH  034%=      5-min Rain = 0
KLA1 111815Z 13003KT 29/12 A3015 RMK A01 T02890118  RH  035%=      5-min Rain = 0
KLA1 111816Z 13000KT 29/12 A3015 RMK A01 T02890118  RH  035%=      5-min Rain = 0
KLA1 111817Z 34002KT 29/12 A3015 RMK A01 T02920118  RH  034%=      5-min Rain = 0
KLA1 111818Z 25003KT 30/12 A3015 RMK A01 T02950120  RH  034%=      5-min Rain = 0
KLA1 111819Z 21002KT 30/12 A3015 RMK A01 T02970119  RH  033%=      5-min Rain = 0
KLA1 111820Z 24005KT 30/12 A3015 RMK A01 T02980120  RH  033%=      5-min Rain = 0
KLA1 111821Z 26005KT 30/12 A3015 RMK A01 T02980121  RH  034%=      5-min Rain = 0
KLA1 111822Z 28003KT 30/12 A3015 RMK A01 T02980120  RH  033%=      5-min Rain = 0
KLA1 111823Z 26004KT 30/12 A3014 RMK A01 T02980119  RH  033%=      5-min Rain = 0
KLA1 111824Z 24005KT 30/12 A3014 RMK A01 T02980121  RH  034%=      5-min Rain = 0
KLA1 111825Z 24003KT 30/12 A3014 RMK A01 T02970118  RH  033%=      5-min Rain = 0
KLA1 111826Z 25004KT 30/12 A3014 RMK A01 T02950118  RH  034%=      5-min Rain = 0
KLA1 111827Z 25005KT 29/12 A3014 RMK A01 T02940119  RH  034%=      5-min Rain = 0
KLA1 111828Z 23004KT 30/12 A3014 RMK A01 T02960119  RH  034%=      5-min Rain = 0
KLA1 111829Z 26002KT 30/12 A3014 RMK A01 T02970117  RH  033%=      5-min Rain = 0
KLA1 111830Z 22003KT 30/12 A3014 RMK A01 T02960119  RH  034%=      5-min Rain = 0
KLA1 111831Z 21004KT 30/12 A3014 RMK A01 T02960117  RH  033%=      5-min Rain = 0
KLA1 111832Z 23003KT 30/12 A3014 RMK A01 T02960118  RH  033%=      5-min Rain = 0
KLA1 111833Z 22006KT 30/12 A3014 RMK A01 T02970118  RH  033%=      5-min Rain = 0
KLA1 111834Z 22004KT 30/12 A3014 RMK A01 T02970119  RH  033%=      5-min Rain = 0
KLA1 111835Z 22003KT 30/12 A3014 RMK A01 T02980117  RH  033%=      5-min Rain = 0
KLA1 111836Z 24004KT 30/12 A3014 RMK A01 T02980120  RH  033%=      5-min Rain = 0
KLA1 111837Z 24003KT 30/12 A3014 RMK A01 T02990120  RH  033%=      5-min Rain = 0
KLA1 111838Z 24002KT 30/12 A3014 RMK A01 T03000119  RH  033%=      5-min Rain = 0
KLA1 111839Z 23003KT 30/12 A3014 RMK A01 T02990121  RH  033%=      5-min Rain = 0
KLA1 111840Z 26004KT 30/12 A3014 RMK A01 T03010121  RH  033%=      5-min Rain = 0
KLA1 111841Z 28005KT 30/12 A3013 RMK A01 T03020119  RH  032%=      5-min Rain = 0
KLA1 111842Z 29005KT 30/12 A3013 RMK A01 T03000119  RH  033%=      5-min Rain = 0
KLA1 111843Z 27004KT 30/12 A3013 RMK A01 T02990118  RH  033%=      5-min Rain = 0
KLA1 111844Z 27005KT 30/12 A3013 RMK A01 T02990120  RH  033%=      5-min Rain = 0
KLA1 111845Z 27005KT 30/12 A3013 RMK A01 T03000118  RH  033%=      5-min Rain = 0
KLA1 111846Z 30003KT 30/12 A3013 RMK A01 T03000120  RH  033%=      5-min Rain = 0
KLA1 111847Z 29003KT 30/12 A3013 RMK A01 T03020122  RH  033%=      5-min Rain = 0
KLA1 111848Z 28004KT 31/12 A3013 RMK A01 T03070121  RH  032%=      5-min Rain = 0
KLA1 111849Z 32004KT 31/12 A3013 RMK A01 T03090120  RH  031%=      5-min Rain = 0
KLA1 111850Z 33006KT 31/12 A3013 RMK A01 T03120119  RH  031%=      5-min Rain = 0
KLA1 111851Z 29005KT 31/12 A3013 RMK A01 T03110120  RH  031%=      5-min Rain = 0
KLA1 111852Z 26003KT 31/12 A3013 RMK A01 T03100119  RH  031%=      5-min Rain = 0
KLA1 111853Z 08006KT 31/12 A3013 RMK A01 T03120120  RH  031%=      5-min Rain = 0
KLA1 111854Z 15008KT 31/12 A3013 RMK A01 T03140122  RH  031%=      5-min Rain = 0
KLA1 111855Z 12005KT 31/11 A3013 RMK A01 T03140114  RH  029%=      5-min Rain = 0
KLA1 111856Z 09005KT 31/11 A3013 RMK A01 T03090111  RH  030%=      5-min Rain = 0
KLA1 111857Z 08004KT 31/11 A3013 RMK A01 T03070106  RH  029%=      5-min Rain = 0
KLA1 111858Z 09002KT 31/11 A3013 RMK A01 T03050105  RH  029%=      5-min Rain = 0
KLA1 111859Z 13001KT 31/10 A3013 RMK A01 T03050104  RH  029%=      5-min Rain = 0
KLA1 111900Z 32001KT 31/11 A3013 RMK A01 T03050105  RH  029%=      5-min Rain = 0
KLA1 111901Z 31004KT 31/11 A3012 RMK A01 T03080105  RH  029%=      5-min Rain = 0
KLA1 111902Z 30003KT 31/11 A3012 RMK A01 T03080106  RH  029%=      5-min Rain = 0
KLA1 111903Z 26003KT 31/11 A3012 RMK A01 T03080109  RH  029%=      5-min Rain = 0
KLA1 111904Z 20002KT 31/11 A3012 RMK A01 T03090108  RH  029%=      5-min Rain = 0
KLA1 111905Z 16003KT 31/11 A3012 RMK A01 T03090108  RH  029%=      5-min Rain = 0
KLA1 111906Z 17004KT 31/11 A3012 RMK A01 T03070111  RH  030%=      5-min Rain = 0
KLA1 111907Z 09003KT 31/11 A3012 RMK A01 T03070110  RH  030%=      5-min Rain = 0
KLA1 111908Z 01002KT 31/11 A3012 RMK A01 T03070110  RH  030%=      5-min Rain = 0
KLA1 111909Z 35003KT 31/11 A3012 RMK A01 T03080113  RH  030%=      5-min Rain = 0
KLA1 111910Z 34007KT 31/11 A3012 RMK A01 T03090113  RH  030%=      5-min Rain = 0
KLA1 111911Z 35009KT 31/12 A3012 RMK A01 T03090115  RH  030%=      5-min Rain = 0
KLA1 111912Z 01009KT 31/12 A3012 RMK A01 T03080116  RH  031%=      5-min Rain = 0
KLA1 111913Z 01006KT 31/12 A3012 RMK A01 T03080117  RH  031%=      5-min Rain = 0
KLA1 111914Z 04004KT 31/12 A3012 RMK A01 T03080115  RH  031%=      5-min Rain = 0
KLA1 111915Z 01002KT 31/12 A3012 RMK A01 T03080116  RH  031%=      5-min Rain = 0
KLA1 111916Z 32006KT 31/12 A3012 RMK A01 T03080118  RH  031%=      5-min Rain = 0
KLA1 111917Z 32004KT 31/12 A3012 RMK A01 T03100116  RH  030%=      5-min Rain = 0
KLA1 111918Z 35004KT 31/12 A3012 RMK A01 T03100116  RH  030%=      5-min Rain = 0
KLA1 111919Z 34005KT 31/11 A3012 RMK A01 T03110113  RH  030%=      5-min Rain = 0
KLA1 111920Z 35005KT 31/11 A3012 RMK A01 T03130109  RH  028%=      5-min Rain = 0
KLA1 111921Z 01004KT 31/11 A3012 RMK A01 T03140113  RH  029%=      5-min Rain = 0
KLA1 111922Z 05006KT 32/11 A3012 RMK A01 T03150107  RH  028%=      5-min Rain = 0
KLA1 111923Z 05004G10KT 32/10 A3012 RMK A01 T03160104  RH  027%=      5-min Rain = 0
KLA1 111924Z 05005KT 32/10 A3012 RMK A01 T03170102  RH  027%=      5-min Rain = 0
KLA1 111925Z 01001KT 31/10 A3012 RMK A01 T03140100  RH  027%=      5-min Rain = 0
KLA1 111926Z 01001KT 31/10 A3011 RMK A01 T03130101  RH  027%=      5-min Rain = 0
KLA1 111927Z 13001KT 31/10 A3011 RMK A01 T03140099  RH  027%=      5-min Rain = 0
KLA1 111928Z 18002KT 32/10 A3011 RMK A01 T03150098  RH  026%=      5-min Rain = 0
KLA1 111929Z 19002KT 32/10 A3011 RMK A01 T03150100  RH  026%=      5-min Rain = 0
KLA1 111930Z 18001KT 32/10 A3011 RMK A01 T03150100  RH  026%=      5-min Rain = 0
KLA1 111931Z 21002KT 32/10 A3011 RMK A01 T03150101  RH  027%=      5-min Rain = 0
KLA1 111932Z 20002KT 32/10 A3011 RMK A01 T03160099  RH  026%=      5-min Rain = 0
KLA1 111933Z 10000KT 32/10 A3011 RMK A01 T03160100  RH  027%=      5-min Rain = 0
KLA1 111934Z 10001KT 32/10 A3011 RMK A01 T03160101  RH  027%=      5-min Rain = 0
KLA1 111935Z 12002KT 32/10 A3011 RMK A01 T03160099  RH  026%=      5-min Rain = 0
KLA1 111936Z 11001KT 32/10 A3011 RMK A01 T03150102  RH  027%=      5-min Rain = 0
KLA1 111937Z 02001KT 32/10 A3011 RMK A01 T03170102  RH  027%=      5-min Rain = 0
KLA1 111938Z 04004KT 32/10 A301 RMK A01 T03200101  RH  026%=      5-min Rain = 0
KLA1 111939Z 04009KT 32/10 A301 RMK A01 T03210104  RH  026%=      5-min Rain = 0
KLA1 111940Z 04010KT 32/10 A301 RMK A01 T03210104  RH  026%=      5-min Rain = 0
KLA1 111941Z 05009KT 32/10 A301 RMK A01 T03180104  RH  027%=      5-min Rain = 0
KLA1 111942Z 05009KT 32/11 A301 RMK A01 T03170105  RH  027%=      5-min Rain = 0
KLA1 111943Z 02007KT 32/10 A301 RMK A01 T03170104  RH  027%=      5-min Rain = 0
KLA1 111944Z 02006KT 32/10 A301 RMK A01 T03160104  RH  027%=      5-min Rain = 0
KLA1 111945Z 02004KT 32/10 A301 RMK A01 T03150102  RH  027%=      5-min Rain = 0
KLA1 111946Z 00005KT 31/10 A301 RMK A01 T03140102  RH  027%=      5-min Rain = 0
KLA1 111947Z 00002KT 31/10 A301 RMK A01 T03130102  RH  027%=      5-min Rain = 0
KLA1 111948Z 35002KT 31/10 A301 RMK A01 T03130101  RH  027%=      5-min Rain = 0
KLA1 111949Z 14001KT 31/10 A301 RMK A01 T03140101  RH  027%=      5-min Rain = 0
KLA1 111950Z 27001KT 32/10 A301 RMK A01 T03160103  RH  027%=      5-min Rain = 0
KLA1 111951Z 35007KT 32/10 A301 RMK A01 T03190104  RH  027%=      5-min Rain = 0
KLA1 111952Z 34009KT 32/10 A301 RMK A01 T03210102  RH  026%=      5-min Rain = 0
KLA1 111953Z 35009KT 32/10 A301 RMK A01 T03200102  RH  026%=      5-min Rain = 0
KLA1 111954Z 32007G12KT 32/10 A301 RMK A01 T03200103  RH  026%=      5-min Rain = 0
KLA1 111955Z 34011KT 32/10 A3009 RMK A01 T03220103  RH  026%=      5-min Rain = 0
KLA1 111956Z 33008KT 32/10 A3009 RMK A01 T03220103  RH  026%=      5-min Rain = 0
KLA1 111957Z 33006KT 32/10 A3009 RMK A01 T03200103  RH  026%=      5-min Rain = 0
KLA1 111958Z 32006KT 32/10 A3009 RMK A01 T03190104  RH  027%=      5-min Rain = 0
KLA1 111959Z 32004KT 32/10 A3009 RMK A01 T03190103  RH  027%=      5-min Rain = 0
KLA1 112000Z 32005KT 32/10 A3009 RMK A01 T03190103  RH  026%=      5-min Rain = 0
KLA1 112001Z 11002KT 32/10 A3009 RMK A01 T03190103  RH  027%=      5-min Rain = 0
KLA1 112002Z 14000KT 32/11 A3009 RMK A01 T03210106  RH  027%=      5-min Rain = 0
KLA1 112003Z 32002KT 32/11 A3009 RMK A01 T03230105  RH  026%=      5-min Rain = 0
KLA1 112004Z 09005KT 32/11 A3009 RMK A01 T03240106  RH  026%=      5-min Rain = 0
KLA1 112005Z 08007KT 32/11 A3009 RMK A01 T03230105  RH  026%=      5-min Rain = 0
KLA1 112006Z 07007KT 32/11 A3009 RMK A01 T03200105  RH  027%=      5-min Rain = 0
KLA1 112007Z 09003KT 32/11 A3009 RMK A01 T03200106  RH  027%=      5-min Rain = 0
KLA1 112008Z 09004KT 32/11 A3009 RMK A01 T03200106  RH  027%=      5-min Rain = 0
KLA1 112009Z 08000KT 32/11 A3009 RMK A01 T03200106  RH  027%=      5-min Rain = 0
KLA1 112010Z 30001KT 32/11 A3009 RMK A01 T03200106  RH  027%=      5-min Rain = 0
KLA1 112011Z 31003KT 32/10 A3008 RMK A01 T03230104  RH  026%=      5-min Rain = 0
KLA1 112012Z 32002KT 32/10 A3008 RMK A01 T03230104  RH  026%=      5-min Rain = 0
KLA1 112013Z 01000KT 32/11 A3008 RMK A01 T03220105  RH  026%=      5-min Rain = 0
KLA1 112014Z 27002KT 32/11 A3008 RMK A01 T03220105  RH  026%=      5-min Rain = 0
KLA1 112015Z 25001KT 32/11 A3008 RMK A01 T03240107  RH  026%=      5-min Rain = 0
KLA1 112016Z 24001KT 33/11 A3008 RMK A01 T03270107  RH  026%=      5-min Rain = 0
KLA1 112017Z 14001KT 33/11 A3008 RMK A01 T03280105  RH  026%=      5-min Rain = 0
KLA1 112018Z 28003KT 33/11 A3008 RMK A01 T03280105  RH  025%=      5-min Rain = 0
KLA1 112019Z 29005KT 33/11 A3008 RMK A01 T03290106  RH  026%=      5-min Rain = 0
KLA1 112020Z 33005KT 33/11 A3008 RMK A01 T03290106  RH  026%=      5-min Rain = 0
KLA1 112021Z 01001KT 33/11 A3008 RMK A01 T03270106  RH  026%=      5-min Rain = 0
KLA1 112022Z 33000KT 33/11 A3008 RMK A01 T03270107  RH  026%=      5-min Rain = 0
KLA1 112023Z 08002KT 33/11 A3008 RMK A01 T03280107  RH  026%=      5-min Rain = 0
KLA1 112024Z 10004KT 33/11 A3008 RMK A01 T03290107  RH  026%=      5-min Rain = 0
KLA1 112025Z 11003KT 33/10 A3008 RMK A01 T03300103  RH  025%=      5-min Rain = 0
KLA1 112026Z 07006KT 33/10 A3008 RMK A01 T03290103  RH  025%=      5-min Rain = 0
KLA1 112027Z 08006KT 33/10 A3008 RMK A01 T03280104  RH  025%=      5-min Rain = 0
KLA1 112028Z 08003KT 33/10 A3008 RMK A01 T03270100  RH  025%=      5-min Rain = 0
KLA1 112029Z 06006KT 32/10 A3007 RMK A01 T03240101  RH  025%=      5-min Rain = 0
KLA1 112030Z 05005KT 32/10 A3007 RMK A01 T03240103  RH  026%=      5-min Rain = 0
KLA1 112031Z 04004KT 32/10 A3007 RMK A01 T03240101  RH  025%=      5-min Rain = 0
KLA1 112032Z 06006KT 32/10 A3007 RMK A01 T03240100  RH  025%=      5-min Rain = 0
KLA1 112033Z 06007KT 32/10 A3007 RMK A01 T03240102  RH  026%=      5-min Rain = 0
KLA1 112034Z 05006KT 32/10 A3007 RMK A01 T03230103  RH  026%=      5-min Rain = 0
KLA1 112035Z 08002KT 32/10 A3007 RMK A01 T03210100  RH  026%=      5-min Rain = 0
KLA1 112036Z 13002KT 32/10 A3007 RMK A01 T03210101  RH  026%=      5-min Rain = 0
KLA1 112037Z 10002KT 32/10 A3007 RMK A01 T03210101  RH  026%=      5-min Rain = 0
KLA1 112038Z 06004KT 32/10 A3007 RMK A01 T03210103  RH  026%=      5-min Rain = 0
KLA1 112039Z 07001KT 32/10 A3007 RMK A01 T03230102  RH  026%=      5-min Rain = 0
KLA1 112040Z 17000KT 32/10 A3007 RMK A01 T03230100  RH  025%=      5-min Rain = 0
KLA1 112041Z 03006G11KT 32/10 A3007 RMK A01 T03240102  RH  026%=      5-min Rain = 0
KLA1 112042Z 05007G12KT 32/10 A3007 RMK A01 T03240103  RH  026%=      5-min Rain = 0
KLA1 112043Z 04005KT 33/11 A3007 RMK A01 T03250105  RH  026%=      5-min Rain = 0
KLA1 112044Z 01006KT 33/10 A3007 RMK A01 T03270102  RH  025%=      5-min Rain = 0
KLA1 112045Z 00005KT 33/10 A3007 RMK A01 T03250101  RH  025%=      5-min Rain = 0
KLA1 112046Z 04001KT 32/10 A3007 RMK A01 T03240101  RH  025%=      5-min Rain = 0
KLA1 112047Z 03002KT 32/10 A3007 RMK A01 T03240101  RH  025%=      5-min Rain = 0
KLA1 112048Z 02006KT 33/10 A3006 RMK A01 T03260102  RH  025%=      5-min Rain = 0
KLA1 112049Z 04009KT 33/11 A3006 RMK A01 T03290106  RH  026%=      5-min Rain = 0
KLA1 112050Z 04008KT 33/10 A3006 RMK A01 T03320104  RH  025%=      5-min Rain = 0
KLA1 112051Z 03007KT 33/10 A3006 RMK A01 T03310102  RH  025%=      5-min Rain = 0
KLA1 112052Z 04008KT 33/11 A3006 RMK A01 T03290105  RH  025%=      5-min Rain = 0
KLA1 112053Z 04007KT 33/10 A3006 RMK A01 T03280104  RH  025%=      5-min Rain = 0
KLA1 112054Z 05009KT 33/10 A3006 RMK A01 T03270104  RH  026%=      5-min Rain = 0
KLA1 112055Z 04008KT 33/11 A3006 RMK A01 T03260105  RH  026%=      5-min Rain = 0
KLA1 112056Z 03005G10KT 33/10 A3006 RMK A01 T03260102  RH  025%=      5-min Rain = 0
KLA1 112057Z 05005KT 32/10 A3006 RMK A01 T03240102  RH  025%=      5-min Rain = 0
KLA1 112058Z 06006KT 32/10 A3006 RMK A01 T03230104  RH  026%=      5-min Rain = 0
KLA1 112059Z 04006KT 32/10 A3006 RMK A01 T03240104  RH  026%=      5-min Rain = 0
KLA1 112100Z 08009KT 33/10 A3006 RMK A01 T03250104  RH  026%=      5-min Rain = 0
KLA1 112101Z 07007KT 33/10 A3006 RMK A01 T03250104  RH  026%=      5-min Rain = 0
KLA1 112102Z 09005KT 33/11 A3006 RMK A01 T03250106  RH  026%=      5-min Rain = 0
KLA1 112103Z 08006KT 33/11 A3006 RMK A01 T03250105  RH  026%=      5-min Rain = 0
KLA1 112104Z 08003KT 33/10 A3006 RMK A01 T03250103  RH  026%=      5-min Rain = 0
KLA1 112105Z 07003KT 33/10 A3006 RMK A01 T03250102  RH  026%=      5-min Rain = 0
KLA1 112106Z 05005KT 32/10 A3006 RMK A01 T03240104  RH  026%=      5-min Rain = 0
KLA1 112107Z 05003KT 33/11 A3006 RMK A01 T03250105  RH  026%=      5-min Rain = 0
KLA1 112108Z 09005KT 33/10 A3006 RMK A01 T03250104  RH  026%=      5-min Rain = 0
KLA1 112109Z 13004KT 33/10 A3006 RMK A01 T03250103  RH  026%=      5-min Rain = 0
KLA1 112110Z 15003KT 32/10 A3005 RMK A01 T03230101  RH  026%=      5-min Rain = 0
KLA1 112111Z 13003KT 32/10 A3005 RMK A01 T03220101  RH  026%=      5-min Rain = 0
KLA1 112112Z 13002KT 32/10 A3005 RMK A01 T03210102  RH  026%=      5-min Rain = 0
KLA1 112113Z 11002KT 32/10 A3005 RMK A01 T03210101  RH  026%=      5-min Rain = 0
KLA1 112114Z 10004KT 32/10 A3005 RMK A01 T03210103  RH  026%=      5-min Rain = 0
KLA1 112115Z 09007KT 32/10 A3005 RMK A01 T03210103  RH  026%=      5-min Rain = 0
KLA1 112116Z 03007KT 32/11 A3005 RMK A01 T03220105  RH  026%=      5-min Rain = 0
KLA1 112117Z 03010KT 32/11 A3005 RMK A01 T03230105  RH  026%=      5-min Rain = 0
KLA1 112118Z 03008KT 33/10 A3005 RMK A01 T03250102  RH  025%=      5-min Rain = 0
KLA1 112119Z 03008KT 33/10 A3005 RMK A01 T03250103  RH  026%=      5-min Rain = 0
KLA1 112120Z 04006KT 33/10 A3005 RMK A01 T03250103  RH  026%=      5-min Rain = 0
KLA1 112121Z 02004KT 33/10 A3005 RMK A01 T03250102  RH  025%=      5-min Rain = 0
KLA1 112122Z 04003KT 32/10 A3005 RMK A01 T03240100  RH  025%=      5-min Rain = 0
KLA1 112123Z 05001KT 32/10 A3005 RMK A01 T03240101  RH  025%=      5-min Rain = 0
KLA1 112124Z 03001KT 33/10 A3005 RMK A01 T03250101  RH  025%=      5-min Rain = 0
KLA1 112125Z 35002KT 33/10 A3005 RMK A01 T03250102  RH  026%=      5-min Rain = 0
KLA1 112126Z 01004KT 33/10 A3005 RMK A01 T03270104  RH  025%=      5-min Rain = 0
KLA1 112127Z 36008KT 33/11 A3005 RMK A01 T03300107  RH  026%=      5-min Rain = 0
KLA1 112128Z 35006KT 33/11 A3005 RMK A01 T03310107  RH  026%=      5-min Rain = 0
KLA1 112129Z 04009KT 33/11 A3005 RMK A01 T03330109  RH  025%=      5-min Rain = 0
KLA1 112130Z 04008KT 33/11 A3005 RMK A01 T03330110  RH  026%=      5-min Rain = 0
KLA1 112131Z 05006KT 33/11 A3005 RMK A01 T03310110  RH  026%=      5-min Rain = 0
KLA1 112132Z 04006KT 33/11 A3005 RMK A01 T03300109  RH  026%=      5-min Rain = 0
KLA1 112133Z 04006KT 33/11 A3005 RMK A01 T03290108  RH  026%=      5-min Rain = 0
KLA1 112134Z 02001KT 33/11 A3004 RMK A01 T03270106  RH  026%=      5-min Rain = 0
KLA1 112135Z 23002KT 33/11 A3004 RMK A01 T03260105  RH  026%=      5-min Rain = 0
KLA1 112136Z 25002KT 33/11 A3004 RMK A01 T03250107  RH  026%=      5-min Rain = 0
KLA1 112137Z 28003KT 33/11 A3004 RMK A01 T03270107  RH  026%=      5-min Rain = 0
KLA1 112138Z 29005KT 33/11 A3004 RMK A01 T03310110  RH  026%=      5-min Rain = 0
KLA1 112139Z 29005KT 34/11 A3004 RMK A01 T03350108  RH  025%=      5-min Rain = 0
KLA1 112140Z 29003KT 33/11 A3004 RMK A01 T03340107  RH  025%=      5-min Rain = 0
KLA1 112141Z 28003KT 33/11 A3004 RMK A01 T03310108  RH  026%=      5-min Rain = 0
KLA1 112142Z 29002KT 33/11 A3004 RMK A01 T03310109  RH  026%=      5-min Rain = 0
KLA1 112143Z 27004KT 33/11 A3004 RMK A01 T03320107  RH  025%=      5-min Rain = 0
KLA1 112144Z 27001KT 33/11 A3004 RMK A01 T03320107  RH  025%=      5-min Rain = 0
KLA1 112145Z 13002KT 33/11 A3004 RMK A01 T03300107  RH  026%=      5-min Rain = 0
KLA1 112146Z 15002KT 33/11 A3004 RMK A01 T03300105  RH  025%=      5-min Rain = 0
KLA1 112147Z 04004KT 33/11 A3004 RMK A01 T03310108  RH  026%=      5-min Rain = 0
KLA1 112148Z 08008KT 33/11 A3004 RMK A01 T03330108  RH  025%=      5-min Rain = 0
KLA1 112149Z 09005KT 33/11 A3004 RMK A01 T03310105  RH  025%=      5-min Rain = 0
KLA1 112150Z 06003KT 33/11 A3004 RMK A01 T03300109  RH  026%=      5-min Rain = 0
KLA1 112151Z 08006KT 33/11 A3004 RMK A01 T03310108  RH  026%=      5-min Rain = 0
KLA1 112152Z 09007KT 33/11 A3004 RMK A01 T03320106  RH  025%=      5-min Rain = 0
KLA1 112153Z 05008KT 33/11 A3004 RMK A01 T03320106  RH  025%=      5-min Rain = 0
KLA1 112154Z 05008KT 33/11 A3004 RMK A01 T03320106  RH  025%=      5-min Rain = 0
KLA1 112155Z 06007KT 33/11 A3004 RMK A01 T03320105  RH  025%=      5-min Rain = 0
KLA1 112156Z 07005KT 33/10 A3004 RMK A01 T03310104  RH  025%=      5-min Rain = 0
KLA1 112157Z 06002KT 33/10 A3004 RMK A01 T03300104  RH  025%=      5-min Rain = 0
KLA1 112158Z 03003KT 33/10 A3004 RMK A01 T03300103  RH  025%=      5-min Rain = 0
KLA1 112159Z 02004KT 33/10 A3004 RMK A01 T03300102  RH  025%=      5-min Rain = 0
KLA1 112200Z 02003KT 33/10 A3004 RMK A01 T03300103  RH  025%=      5-min Rain = 0
KLA1 112201Z 01003KT 33/10 A3004 RMK A01 T03290103  RH  025%=      5-min Rain = 0
KLA1 112202Z 35005KT 33/10 A3004 RMK A01 T03270101  RH  025%=      5-min Rain = 0
KLA1 112203Z 00005KT 33/10 A3004 RMK A01 T03270103  RH  025%=      5-min Rain = 0
KLA1 112204Z 03003KT 33/11 A3004 RMK A01 T03280105  RH  026%=      5-min Rain = 0
KLA1 112205Z 36005KT 33/11 A3004 RMK A01 T03280105  RH  025%=      5-min Rain = 0
KLA1 112206Z 35006KT 33/11 A3004 RMK A01 T03290105  RH  025%=      5-min Rain = 0
KLA1 112207Z 31004KT 33/10 A3003 RMK A01 T03280104  RH  025%=      5-min Rain = 0
KLA1 112208Z 30005KT 33/10 A3003 RMK A01 T03280104  RH  025%=      5-min Rain = 0
KLA1 112209Z 31005KT 33/10 A3003 RMK A01 T03290104  RH  025%=      5-min Rain = 0
KLA1 112210Z 30004KT 33/10 A3003 RMK A01 T03300103  RH  025%=      5-min Rain = 0
KLA1 112211Z 29004KT 33/11 A3003 RMK A01 T03310106  RH  025%=      5-min Rain = 0
KLA1 112212Z 27003KT 33/10 A3003 RMK A01 T03330103  RH  024%=      5-min Rain = 0
KLA1 112213Z 27003KT 33/10 A3003 RMK A01 T03330103  RH  025%=      5-min Rain = 0
KLA1 112214Z 33005KT 33/11 A3003 RMK A01 T03320105  RH  025%=      5-min Rain = 0
KLA1 112215Z 00006KT 33/11 A3003 RMK A01 T03320105  RH  025%=      5-min Rain = 0
KLA1 112216Z 35007KT 33/11 A3003 RMK A01 T03330105  RH  025%=      5-min Rain = 0
KLA1 112217Z 36007KT 33/10 A3003 RMK A01 T03330104  RH  025%=      5-min Rain = 0
KLA1 112218Z 34006KT 33/10 A3003 RMK A01 T03310103  RH  025%=      5-min Rain = 0
KLA1 112219Z 34004KT 33/10 A3003 RMK A01 T03300104  RH  025%=      5-min Rain = 0
KLA1 112220Z 36001KT 33/11 A3003 RMK A01 T03300107  RH  026%=      5-min Rain = 0
KLA1 112221Z 03002KT 33/11 A3003 RMK A01 T03330107  RH  025%=      5-min Rain = 0
KLA1 112222Z 35004KT 34/11 A3003 RMK A01 T03350106  RH  025%=      5-min Rain = 0
KLA1 112223Z 36006KT 34/11 A3003 RMK A01 T03350105  RH  025%=      5-min Rain = 0
KLA1 112224Z 31005KT 33/11 A3003 RMK A01 T03330105  RH  025%=      5-min Rain = 0
KLA1 112225Z 30004KT 33/10 A3003 RMK A01 T03330104  RH  025%=      5-min Rain = 0
KLA1 112226Z 30004KT 33/11 A3003 RMK A01 T03330105  RH  025%=      5-min Rain = 0
KLA1 112227Z 29003KT 34/11 A3003 RMK A01 T03350105  RH  024%=      5-min Rain = 0
KLA1 112228Z 05002KT 34/11 A3003 RMK A01 T03370107  RH  025%=      5-min Rain = 0
KLA1 112229Z 02005KT 34/10 A3003 RMK A01 T03370102  RH  024%=      5-min Rain = 0
KLA1 112230Z 36005KT 34/10 A3003 RMK A01 T03350099  RH  024%=      5-min Rain = 0
KLA1 112231Z 01006KT 33/10 A3003 RMK A01 T03330100  RH  024%=      5-min Rain = 0
KLA1 112232Z 05007KT 33/10 A3003 RMK A01 T03320101  RH  024%=      5-min Rain = 0
KLA1 112233Z 05006KT 33/10 A3003 RMK A01 T03300097  RH  024%=      5-min Rain = 0
KLA1 112234Z 04005KT 33/10 A3003 RMK A01 T03290096  RH  024%=      5-min Rain = 0
KLA1 112235Z 05004KT 33/10 A3003 RMK A01 T03280097  RH  024%=      5-min Rain = 0
KLA1 112236Z 02007KT 33/10 A3003 RMK A01 T03290099  RH  024%=      5-min Rain = 0
KLA1 112237Z 04006KT 33/10 A3003 RMK A01 T03310101  RH  024%=      5-min Rain = 0
KLA1 112238Z 05008KT 33/10 A3003 RMK A01 T03310098  RH  024%=      5-min Rain = 0
KLA1 112239Z 05004KT 33/10 A3003 RMK A01 T03300098  RH  024%=      5-min Rain = 0
KLA1 112240Z 06004KT 33/10 A3003 RMK A01 T03300100  RH  024%=      5-min Rain = 0
KLA1 112241Z 05006KT 33/10 A3003 RMK A01 T03300100  RH  024%=      5-min Rain = 0
KLA1 112242Z 07006KT 33/10 A3003 RMK A01 T03310100  RH  024%=      5-min Rain = 0
KLA1 112243Z 07008KT 33/10 A3003 RMK A01 T03320099  RH  024%=      5-min Rain = 0
KLA1 112244Z 07006KT 33/10 A3003 RMK A01 T03310096  RH  024%=      5-min Rain = 0
KLA1 112245Z 08002KT 33/10 A3003 RMK A01 T03280096  RH  024%=      5-min Rain = 0
KLA1 112246Z 06005KT 33/10 A3003 RMK A01 T03280098  RH  024%=      5-min Rain = 0
KLA1 112247Z 08007KT 33/10 A3003 RMK A01 T03290097  RH  024%=      5-min Rain = 0
KLA1 112248Z 07006KT 33/10 A3003 RMK A01 T03290097  RH  024%=      5-min Rain = 0
KLA1 112249Z 07003KT 33/10 A3003 RMK A01 T03280098  RH  024%=      5-min Rain = 0
KLA1 112250Z 08004KT 33/10 A3003 RMK A01 T03280098  RH  024%=      5-min Rain = 0
KLA1 112251Z 08004KT 33/10 A3003 RMK A01 T03290099  RH  024%=      5-min Rain = 0
KLA1 112252Z 03005KT 33/10 A3003 RMK A01 T03290099  RH  024%=      5-min Rain = 0
KLA1 112253Z 02004KT 33/10 A3003 RMK A01 T03300098  RH  024%=      5-min Rain = 0
KLA1 112254Z 00003KT 33/10 A3003 RMK A01 T03300099  RH  024%=      5-min Rain = 0
KLA1 112255Z 01003KT 33/10 A3003 RMK A01 T03310100  RH  024%=      5-min Rain = 0
KLA1 112256Z 03002KT 33/10 A3003 RMK A01 T03310097  RH  024%=      5-min Rain = 0
KLA1 112257Z 10004KT 33/10 A3003 RMK A01 T03310098  RH  024%=      5-min Rain = 0
KLA1 112258Z 09005KT 33/10 A3003 RMK A01 T03300098  RH  024%=      5-min Rain = 0
KLA1 112259Z 12005KT 33/10 A3003 RMK A01 T03290097  RH  024%=      5-min Rain = 0
KLA1 112300Z 11004KT 33/10 A3003 RMK A01 T03280097  RH  024%=      5-min Rain = 0
KLA1 112301Z 08006KT 33/10 A3003 RMK A01 T03280099  RH  025%=      5-min Rain = 0
KLA1 112302Z 11004KT 33/10 A3003 RMK A01 T03280097  RH  024%=      5-min Rain = 0
KLA1 112303Z 10002KT 33/10 A3003 RMK A01 T03280096  RH  024%=      5-min Rain = 0
KLA1 112304Z 09007KT 33/10 A3003 RMK A01 T03280098  RH  024%=      5-min Rain = 0
KLA1 112305Z 07006KT 33/10 A3003 RMK A01 T03280098  RH  024%=      5-min Rain = 0
KLA1 112306Z 08007KT 33/10 A3003 RMK A01 T03290099  RH  024%=      5-min Rain = 0
KLA1 112307Z 08006KT 33/10 A3003 RMK A01 T03290096  RH  024%=      5-min Rain = 0
KLA1 112308Z 10003KT 33/09 A3003 RMK A01 T03270094  RH  024%=      5-min Rain = 0
KLA1 112309Z 06001KT 33/09 A3003 RMK A01 T03250094  RH  024%=      5-min Rain = 0
KLA1 112310Z 13003KT 33/09 A3003 RMK A01 T03250094  RH  024%=      5-min Rain = 0
KLA1 112311Z 11007KT 33/10 A3003 RMK A01 T03250095  RH  024%=      5-min Rain = 0
KLA1 112312Z 08008KT 33/10 A3003 RMK A01 T03250098  RH  025%=      5-min Rain = 0
KLA1 112313Z 08007KT 33/10 A3003 RMK A01 T03250099  RH  025%=      5-min Rain = 0
KLA1 112314Z 08006KT 33/10 A3003 RMK A01 T03260100  RH  025%=      5-min Rain = 0
KLA1 112315Z 06008KT 33/10 A3003 RMK A01 T03260101  RH  025%=      5-min Rain = 0
KLA1 112316Z 07007KT 33/10 A3003 RMK A01 T03260100  RH  025%=      5-min Rain = 0
KLA1 112317Z 08005KT 33/10 A3003 RMK A01 T03260100  RH  025%=      5-min Rain = 0
KLA1 112318Z 07005KT 33/10 A3003 RMK A01 T03260100  RH  025%=      5-min Rain = 0
KLA1 112319Z 04008KT 33/10 A3003 RMK A01 T03250100  RH  025%=      5-min Rain = 0
KLA1 112320Z 06006KT 33/10 A3003 RMK A01 T03250103  RH  025%=      5-min Rain = 0
KLA1 112321Z 05008KT 33/10 A3003 RMK A01 T03260102  RH  025%=      5-min Rain = 0
KLA1 112322Z 05007KT 33/10 A3003 RMK A01 T03260101  RH  025%=      5-min Rain = 0
KLA1 112323Z 05007KT 33/10 A3003 RMK A01 T03260101  RH  025%=      5-min Rain = 0
KLA1 112324Z 06004KT 33/10 A3003 RMK A01 T03250100  RH  025%=      5-min Rain = 0
KLA1 112325Z 04003KT 33/10 A3003 RMK A01 T03250101  RH  025%=      5-min Rain = 0
KLA1 112326Z 02004KT 33/10 A3003 RMK A01 T03250101  RH  025%=      5-min Rain = 0
KLA1 112327Z 03004KT 33/10 A3003 RMK A01 T03250100  RH  025%=      5-min Rain = 0
KLA1 112328Z 05003KT 33/10 A3003 RMK A01 T03250100  RH  025%=      5-min Rain = 0
KLA1 112329Z 02003KT 33/10 A3003 RMK A01 T03250100  RH  025%=      5-min Rain = 0
KLA1 112330Z 04002KT 33/10 A3003 RMK A01 T03250099  RH  025%=      5-min Rain = 0
KLA1 112331Z 34002KT 33/10 A3003 RMK A01 T03250101  RH  025%=      5-min Rain = 0
KLA1 112332Z 00002KT 33/10 A3003 RMK A01 T03250100  RH  025%=      5-min Rain = 0
KLA1 112333Z 03003KT 33/10 A3003 RMK A01 T03260103  RH  025%=      5-min Rain = 0
KLA1 112334Z 06001KT 33/10 A3003 RMK A01 T03250102  RH  025%=      5-min Rain = 0
KLA1 112335Z 00000KT 33/10 A3003 RMK A01 T03260102  RH  025%=      5-min Rain = 0
KLA1 112336Z 03002KT 33/10 A3003 RMK A01 T03260103  RH  025%=      5-min Rain = 0
KLA1 112337Z 06003KT 33/10 A3003 RMK A01 T03260104  RH  026%=      5-min Rain = 0
KLA1 112338Z 03005KT 33/11 A3003 RMK A01 T03260105  RH  026%=      5-min Rain = 0
KLA1 112339Z 07004KT 33/11 A3003 RMK A01 T03270105  RH  026%=      5-min Rain = 0
KLA1 112340Z 07002KT 33/11 A3003 RMK A01 T03260106  RH  026%=      5-min Rain = 0
KLA1 112341Z 08004KT 33/11 A3003 RMK A01 T03260106  RH  026%=      5-min Rain = 0
KLA1 112342Z 06005KT 33/10 A3003 RMK A01 T03260103  RH  025%=      5-min Rain = 0
KLA1 112343Z 07004KT 33/10 A3003 RMK A01 T03260101  RH  025%=      5-min Rain = 0
KLA1 112344Z 09005KT 33/10 A3003 RMK A01 T03250102  RH  025%=      5-min Rain = 0
KLA1 112345Z 10004KT 32/10 A3003 RMK A01 T03240101  RH  025%=      5-min Rain = 0
KLA1 112346Z 08005KT 32/10 A3003 RMK A01 T03220100  RH  025%=      5-min Rain = 0
KLA1 112347Z 07006KT 32/10 A3003 RMK A01 T03210101  RH  026%=      5-min Rain = 0
KLA1 112348Z 08005KT 32/10 A3003 RMK A01 T03210101  RH  026%=      5-min Rain = 0
KLA1 112349Z 08005KT 32/10 A3003 RMK A01 T03210101  RH  026%=      5-min Rain = 0
KLA1 112350Z 08005KT 32/10 A3003 RMK A01 T03210101  RH  026%=      5-min Rain = 0
KLA1 112351Z 04004KT 32/10 A3003 RMK A01 T03210104  RH  026%=      5-min Rain = 0
KLA1 112352Z 05004KT 32/11 A3003 RMK A01 T03210105  RH  027%=      5-min Rain = 0
KLA1 112353Z 03005KT 32/11 A3003 RMK A01 T03210105  RH  026%=      5-min Rain = 0
KLA1 112354Z 03003KT 32/10 A3003 RMK A01 T03210103  RH  026%=      5-min Rain = 0
KLA1 112355Z 05003KT 32/10 A3003 RMK A01 T03210104  RH  026%=      5-min Rain = 0
KLA1 112356Z 11000KT 32/11 A3003 RMK A01 T03210106  RH  027%=      5-min Rain = 0
KLA1 112357Z 16003KT 32/10 A3003 RMK A01 T03210102  RH  026%=      5-min Rain = 0
KLA1 112358Z 11005KT 32/10 A3003 RMK A01 T03210100  RH  026%=      5-min Rain = 0
KLA1 112359Z 12006KT 32/10 A3003 RMK A01 T03210101  RH  026%=      5-min Rain = 0
KLA1 120000Z 11006KT 32/10 A3003 RMK A01 T03200099  RH  026%=      5-min Rain = 0
KLA1 120001Z 11004KT 32/10 A3003 RMK A01 T03190098  RH  026%=      5-min Rain = 0
KLA1 120002Z 11003KT 32/10 A3003 RMK A01 T03180100  RH  026%=      5-min Rain = 0
KLA1 120003Z 09001KT 32/10 A3003 RMK A01 T03180103  RH  027%=      5-min Rain = 0
KLA1 120004Z 08002KT 32/10 A3003 RMK A01 T03180102  RH  027%=      5-min Rain = 0
KLA1 120005Z 11002KT 32/10 A3003 RMK A01 T03180101  RH  026%=      5-min Rain = 0
KLA1 120006Z 06002KT 32/10 A3003 RMK A01 T03180102  RH  027%=      5-min Rain = 0
KLA1 120007Z 06000KT 32/10 A3003 RMK A01 T03180100  RH  026%=      5-min Rain = 0
KLA1 120008Z 00001KT 32/10 A3003 RMK A01 T03180099  RH  026%=      5-min Rain = 0
KLA1 120009Z 02002KT 32/10 A3003 RMK A01 T03180102  RH  026%=      5-min Rain = 0
KLA1 120010Z 04003KT 32/10 A3003 RMK A01 T03190103  RH  027%=      5-min Rain = 0
KLA1 120011Z 05003KT 32/11 A3003 RMK A01 T03180105  RH  027%=      5-min Rain = 0
KLA1 120012Z 07004KT 32/11 A3003 RMK A01 T03180105  RH  027%=      5-min Rain = 0
KLA1 120013Z 07005KT 32/11 A3003 RMK A01 T03170105  RH  027%=      5-min Rain = 0
KLA1 120014Z 07004KT 32/11 A3003 RMK A01 T03170105  RH  027%=      5-min Rain = 0
KLA1 120015Z 08004KT 32/11 A3003 RMK A01 T03160105  RH  027%=      5-min Rain = 0
KLA1 120016Z 07004KT 32/11 A3003 RMK A01 T03160105  RH  027%=      5-min Rain = 0
KLA1 120017Z 08004KT 32/11 A3003 RMK A01 T03150106  RH  028%=      5-min Rain = 0
KLA1 120018Z 07003KT 32/11 A3003 RMK A01 T03150105  RH  028%=      5-min Rain = 0
KLA1 120019Z 06004KT 32/11 A3003 RMK A01 T03150106  RH  028%=      5-min Rain = 0
KLA1 120020Z 07004KT 31/11 A3003 RMK A01 T03140106  RH  028%=      5-min Rain = 0
KLA1 120021Z 05004KT 31/11 A3003 RMK A01 T03130106  RH  028%=      5-min Rain = 0
KLA1 120022Z 04005KT 31/11 A3003 RMK A01 T03130106  RH  028%=      5-min Rain = 0
KLA1 120023Z 05005KT 31/11 A3003 RMK A01 T03130105  RH  028%=      5-min Rain = 0
KLA1 120024Z 06005KT 31/11 A3003 RMK A01 T03130105  RH  028%=      5-min Rain = 0
KLA1 120025Z 06003KT 31/11 A3003 RMK A01 T03120106  RH  028%=      5-min Rain = 0
KLA1 120026Z 07004KT 31/11 A3003 RMK A01 T03120107  RH  028%=      5-min Rain = 0
KLA1 120027Z 07005KT 31/11 A3003 RMK A01 T03120106  RH  028%=      5-min Rain = 0
KLA1 120028Z 07006KT 31/11 A3003 RMK A01 T03110105  RH  028%=      5-min Rain = 0
KLA1 120029Z 08005KT 31/10 A3003 RMK A01 T03100104  RH  028%=      5-min Rain = 0
KLA1 120030Z 08005KT 31/10 A3003 RMK A01 T03100102  RH  028%=      5-min Rain = 0
KLA1 120031Z 08006KT 31/10 A3003 RMK A01 T03100101  RH  028%=      5-min Rain = 0
KLA1 120032Z 07006KT 31/10 A3003 RMK A01 T03100102  RH  028%=      5-min Rain = 0
KLA1 120033Z 07006KT 31/10 A3003 RMK A01 T03090101  RH  028%=      5-min Rain = 0
KLA1 120034Z 08005KT 31/10 A3003 RMK A01 T03090102  RH  028%=      5-min Rain = 0
KLA1 120035Z 08003KT 31/10 A3003 RMK A01 T03090102  RH  028%=      5-min Rain = 0
KLA1 120036Z 08004KT 31/10 A3003 RMK A01 T03080101  RH  028%=      5-min Rain = 0
KLA1 120037Z 08003KT 31/10 A3003 RMK A01 T03080102  RH  028%=      5-min Rain = 0
KLA1 120038Z 08004KT 31/10 A3003 RMK A01 T03070103  RH  028%=      5-min Rain = 0
KLA1 120039Z 08005KT 31/10 A3003 RMK A01 T03060102  RH  028%=      5-min Rain = 0
KLA1 120040Z 09005KT 31/10 A3003 RMK A01 T03050101  RH  028%=      5-min Rain = 0
KLA1 120041Z 08005KT 31/10 A3003 RMK A01 T03050100  RH  028%=      5-min Rain = 0
KLA1 120042Z 09004KT 31/10 A3003 RMK A01 T03050101  RH  028%=      5-min Rain = 0
KLA1 120043Z 10005KT 31/10 A3003 RMK A01 T03050101  RH  028%=      5-min Rain = 0
KLA1 120044Z 08004KT 30/10 A3003 RMK A01 T03040101  RH  028%=      5-min Rain = 0
KLA1 120045Z 08004KT 30/10 A3003 RMK A01 T03030102  RH  029%=      5-min Rain = 0
KLA1 120046Z 09005KT 30/10 A3003 RMK A01 T03020102  RH  029%=      5-min Rain = 0
KLA1 120047Z 09004KT 30/10 A3003 RMK A01 T03020102  RH  029%=      5-min Rain = 0
KLA1 120048Z 09003KT 30/10 A3003 RMK A01 T03010102  RH  029%=      5-min Rain = 0
KLA1 120049Z 08004KT 30/10 A3003 RMK A01 T03000102  RH  029%=      5-min Rain = 0
KLA1 120050Z 08004KT 30/10 A3003 RMK A01 T02990101  RH  029%=      5-min Rain = 0
KLA1 120051Z 08004KT 30/10 A3003 RMK A01 T02990101  RH  029%=      5-min Rain = 0
KLA1 120052Z 09004KT 30/10 A3003 RMK A01 T02980102  RH  030%=      5-min Rain = 0
KLA1 120053Z 09005KT 30/10 A3003 RMK A01 T02980101  RH  029%=      5-min Rain = 0
KLA1 120054Z 09004KT 30/10 A3003 RMK A01 T02970101  RH  030%=      5-min Rain = 0
KLA1 120055Z 09004KT 30/10 A3003 RMK A01 T02970101  RH  030%=      5-min Rain = 0
KLA1 120056Z 09004KT 30/10 A3003 RMK A01 T02960101  RH  030%=      5-min Rain = 0
KLA1 120057Z 09004KT 30/10 A3003 RMK A01 T02960101  RH  030%=      5-min Rain = 0
KLA1 120058Z 09005KT 30/10 A3003 RMK A01 T02950101  RH  030%=      5-min Rain = 0
KLA1 120059Z 09004KT 29/10 A3003 RMK A01 T02940101  RH  030%=      5-min Rain = 0
KLA1 120100Z 09003KT 29/10 A3003 RMK A01 T02940102  RH  030%=      5-min Rain = 0
KLA1 120101Z 09003KT 29/10 A3003 RMK A01 T02930102  RH  031%=      5-min Rain = 0
KLA1 120102Z 08003KT 29/10 A3003 RMK A01 T02920101  RH  030%=      5-min Rain = 0
KLA1 120103Z 08003KT 29/10 A3003 RMK A01 T02920102  RH  031%=      5-min Rain = 0
KLA1 120104Z 07003KT 29/10 A3003 RMK A01 T02910101  RH  031%=      5-min Rain = 0
KLA1 120105Z 05004KT 29/10 A3003 RMK A01 T02910101  RH  031%=      5-min Rain = 0
KLA1 120106Z 05004KT 29/10 A3003 RMK A01 T02900102  RH  031%=      5-min Rain = 0
KLA1 120107Z 06004KT 29/10 A3003 RMK A01 T02900102  RH  031%=      5-min Rain = 0
KLA1 120108Z 06004KT 29/10 A3003 RMK A01 T02890102  RH  031%=      5-min Rain = 0
KLA1 120109Z 06004KT 29/10 A3003 RMK A01 T02890102  RH  031%=      5-min Rain = 0
KLA1 120110Z 05005KT 29/10 A3003 RMK A01 T02880103  RH  032%=      5-min Rain = 0
KLA1 120111Z 06005KT 29/10 A3003 RMK A01 T02870102  RH  032%=      5-min Rain = 0
KLA1 120112Z 06005KT 29/10 A3003 RMK A01 T02870101  RH  032%=      5-min Rain = 0
KLA1 120113Z 06005KT 29/10 A3003 RMK A01 T02870101  RH  031%=      5-min Rain = 0
KLA1 120114Z 05005KT 29/10 A3003 RMK A01 T02870101  RH  031%=      5-min Rain = 0
KLA1 120115Z 06005KT 29/10 A3003 RMK A01 T02870102  RH  031%=      5-min Rain = 0
KLA1 120116Z 05005KT 29/10 A3003 RMK A01 T02870102  RH  032%=      5-min Rain = 0
KLA1 120117Z 07006KT 29/10 A3003 RMK A01 T02870101  RH  031%=      5-min Rain = 0
KLA1 120118Z 06005KT 29/10 A3003 RMK A01 T02870101  RH  031%=      5-min Rain = 0
KLA1 120119Z 05006KT 29/10 A3003 RMK A01 T02870100  RH  031%=      5-min Rain = 0
KLA1 120120Z 05005KT 29/10 A3003 RMK A01 T02870100  RH  031%=      5-min Rain = 0
KLA1 120121Z 05005KT 29/10 A3003 RMK A01 T02870100  RH  031%=      5-min Rain = 0
KLA1 120122Z 06005KT 29/10 A3003 RMK A01 T02870100  RH  031%=      5-min Rain = 0
KLA1 120123Z 06004KT 29/10 A3003 RMK A01 T02870100  RH  031%=      5-min Rain = 0
KLA1 120124Z 06005KT 29/10 A3003 RMK A01 T02870100  RH  031%=      5-min Rain = 0
KLA1 120125Z 05005KT 29/10 A3003 RMK A01 T02880100  RH  031%=      5-min Rain = 0
KLA1 120126Z 06005KT 29/10 A3003 RMK A01 T02880100  RH  031%=      5-min Rain = 0
KLA1 120127Z 06005KT 29/10 A3003 RMK A01 T02870101  RH  031%=      5-min Rain = 0
KLA1 120128Z 06005KT 29/10 A3003 RMK A01 T02870101  RH  031%=      5-min Rain = 0
KLA1 120129Z 06006KT 29/10 A3003 RMK A01 T02870101  RH  031%=      5-min Rain = 0
KLA1 120130Z 06005KT 29/10 A3003 RMK A01 T02870101  RH  031%=      5-min Rain = 0
KLA1 120131Z 06005KT 29/10 A3003 RMK A01 T02870100  RH  031%=      5-min Rain = 0
KLA1 120132Z 05005KT 29/10 A3003 RMK A01 T02870100  RH  031%=      5-min Rain = 0
KLA1 120133Z 06005KT 29/10 A3003 RMK A01 T02870100  RH  031%=      5-min Rain = 0
KLA1 120134Z 06006KT 29/10 A3003 RMK A01 T02870100  RH  031%=      5-min Rain = 0
KLA1 120135Z 06005KT 29/10 A3003 RMK A01 T02870100  RH  031%=      5-min Rain = 0
KLA1 120136Z 06006KT 29/10 A3003 RMK A01 T02880100  RH  031%=      5-min Rain = 0
KLA1 120137Z 07004KT 29/10 A3003 RMK A01 T02880100  RH  031%=      5-min Rain = 0
KLA1 120138Z 06006KT 29/10 A3003 RMK A01 T02870100  RH  031%=      5-min Rain = 0
KLA1 120139Z 06005KT 29/10 A3003 RMK A01 T02880100  RH  031%=      5-min Rain = 0
KLA1 120140Z 07005KT 29/10 A3003 RMK A01 T02870100  RH  031%=      5-min Rain = 0
KLA1 120141Z 06005KT 29/10 A3003 RMK A01 T02870100  RH  031%=      5-min Rain = 0
KLA1 120142Z 07005KT 29/10 A3003 RMK A01 T02870100  RH  031%=      5-min Rain = 0
KLA1 120143Z 07005KT 29/10 A3003 RMK A01 T02870100  RH  031%=      5-min Rain = 0
KLA1 120144Z 06006KT 29/10 A3003 RMK A01 T02870100  RH  031%=      5-min Rain = 0
KLA1 120145Z 07006KT 29/10 A3003 RMK A01 T02870099  RH  031%=      5-min Rain = 0
KLA1 120146Z 07007KT 29/10 A3003 RMK A01 T02870100  RH  031%=      5-min Rain = 0
KLA1 120147Z 07005KT 29/10 A3003 RMK A01 T02870100  RH  031%=      5-min Rain = 0
KLA1 120148Z 06006KT 29/10 A3003 RMK A01 T02870100  RH  031%=      5-min Rain = 0
KLA1 120149Z 06006KT 29/10 A3003 RMK A01 T02870100  RH  031%=      5-min Rain = 0
KLA1 120150Z 06006KT 29/10 A3003 RMK A01 T02870100  RH  031%=      5-min Rain = 0
KLA1 120151Z 06006KT 29/10 A3003 RMK A01 T02860100  RH  031%=      5-min Rain = 0
KLA1 120152Z 06005KT 29/10 A3004 RMK A01 T02860100  RH  031%=      5-min Rain = 0
KLA1 120153Z 06006KT 29/10 A3004 RMK A01 T02860100  RH  031%=      5-min Rain = 0
KLA1 120154Z 06006KT 29/10 A3004 RMK A01 T02860100  RH  031%=      5-min Rain = 0
KLA1 120155Z 07007KT 29/10 A3004 RMK A01 T02860100  RH  031%=      5-min Rain = 0
KLA1 120156Z 06006KT 29/10 A3004 RMK A01 T02860100  RH  031%=      5-min Rain = 0
KLA1 120157Z 06006KT 29/10 A3004 RMK A01 T02860100  RH  031%=      5-min Rain = 0
KLA1 120158Z 06007KT 29/10 A3004 RMK A01 T02860100  RH  031%=      5-min Rain = 0
KLA1 120159Z 05006KT 29/10 A3004 RMK A01 T02860100  RH  031%=      5-min Rain = 0
KLA1 120200Z 06006KT 29/10 A3004 RMK A01 T02850100  RH  031%=      5-min Rain = 0
KLA1 120201Z 06006KT 29/10 A3004 RMK A01 T02850101  RH  032%=      5-min Rain = 0
KLA1 120202Z 06007KT 29/10 A3004 RMK A01 T02850100  RH  032%=      5-min Rain = 0
KLA1 120203Z 06005KT 28/10 A3004 RMK A01 T02840100  RH  032%=      5-min Rain = 0
KLA1 120204Z 06007KT 28/10 A3004 RMK A01 T02840100  RH  032%=      5-min Rain = 0
KLA1 120205Z 06007KT 28/10 A3004 RMK A01 T02840100  RH  032%=      5-min Rain = 0
KLA1 120206Z 06006KT 28/10 A3004 RMK A01 T02840100  RH  032%=      5-min Rain = 0
KLA1 120207Z 07005KT 28/10 A3004 RMK A01 T02840101  RH  032%=      5-min Rain = 0
KLA1 120208Z 07006KT 28/10 A3004 RMK A01 T02840101  RH  032%=      5-min Rain = 0
KLA1 120209Z 06005KT 28/10 A3004 RMK A01 T02840100  RH  032%=      5-min Rain = 0
KLA1 120210Z 07007KT 28/10 A3004 RMK A01 T02830101  RH  032%=      5-min Rain = 0
KLA1 120211Z 07006KT 28/10 A3004 RMK A01 T02840100  RH  032%=      5-min Rain = 0
KLA1 120212Z 07007KT 28/10 A3004 RMK A01 T02840101  RH  032%=      5-min Rain = 0
KLA1 120213Z 07008KT 28/10 A3004 RMK A01 T02840101  RH  032%=      5-min Rain = 0
KLA1 120214Z 06006KT 28/10 A3004 RMK A01 T02840101  RH  032%=      5-min Rain = 0
KLA1 120215Z 07007KT 28/10 A3004 RMK A01 T02840101  RH  032%=      5-min Rain = 0
KLA1 120216Z 07008KT 29/10 A3005 RMK A01 T02850101  RH  032%=      5-min Rain = 0
KLA1 120217Z 07010KT 29/10 A3005 RMK A01 T02850101  RH  032%=      5-min Rain = 0
KLA1 120218Z 07007KT 29/10 A3005 RMK A01 T02850101  RH  032%=      5-min Rain = 0
KLA1 120219Z 08010KT 29/10 A3005 RMK A01 T02850101  RH  032%=      5-min Rain = 0
KLA1 120220Z 08008KT 29/10 A3005 RMK A01 T02860102  RH  032%=      5-min Rain = 0
KLA1 120221Z 07005KT 29/10 A3005 RMK A01 T02850102  RH  032%=      5-min Rain = 0
KLA1 120222Z 07006KT 29/10 A3005 RMK A01 T02850102  RH  032%=      5-min Rain = 0
KLA1 120223Z 08009KT 28/10 A3005 RMK A01 T02840102  RH  032%=      5-min Rain = 0
KLA1 120224Z 06007KT 28/10 A3005 RMK A01 T02830102  RH  032%=      5-min Rain = 0
KLA1 120225Z 07008KT 28/10 A3005 RMK A01 T02830102  RH  032%=      5-min Rain = 0
KLA1 120226Z 08007KT 28/10 A3005 RMK A01 T02830102  RH  032%=      5-min Rain = 0
KLA1 120227Z 07007KT 28/10 A3005 RMK A01 T02820102  RH  033%=      5-min Rain = 0
KLA1 120228Z 08008KT 28/10 A3005 RMK A01 T02820102  RH  033%=      5-min Rain = 0
KLA1 120229Z 08008KT 28/10 A3005 RMK A01 T02820102  RH  033%=      5-min Rain = 0
KLA1 120230Z 08008KT 28/10 A3005 RMK A01 T02820102  RH  033%=      5-min Rain = 0
KLA1 120231Z 06007KT 28/10 A3005 RMK A01 T02820102  RH  033%=      5-min Rain = 0
KLA1 120232Z 08008KT 28/10 A3005 RMK A01 T02810102  RH  033%=      5-min Rain = 0
KLA1 120233Z 08008KT 28/10 A3005 RMK A01 T02810102  RH  033%=      5-min Rain = 0
KLA1 120234Z 08006KT 28/10 A3005 RMK A01 T02810103  RH  033%=      5-min Rain = 0
KLA1 120235Z 07008KT 28/10 A3005 RMK A01 T02800102  RH  033%=      5-min Rain = 0
KLA1 120236Z 08009KT 28/10 A3005 RMK A01 T02800103  RH  033%=      5-min Rain = 0
KLA1 120237Z 08009G14KT 28/10 A3005 RMK A01 T02800103  RH  033%=      5-min Rain = 0
KLA1 120238Z 09009KT 28/10 A3005 RMK A01 T02800103  RH  033%=      5-min Rain = 0
KLA1 120239Z 07007KT 28/10 A3005 RMK A01 T02800103  RH  033%=      5-min Rain = 0
KLA1 120240Z 08008KT 28/10 A3005 RMK A01 T02800103  RH  033%=      5-min Rain = 0
KLA1 120241Z 07008KT 28/10 A3005 RMK A01 T02790103  RH  033%=      5-min Rain = 0
KLA1 120242Z 08007KT 28/10 A3005 RMK A01 T02780103  RH  034%=      5-min Rain = 0
KLA1 120243Z 07008KT 28/10 A3005 RMK A01 T02780104  RH  034%=      5-min Rain = 0
KLA1 120244Z 07008KT 28/10 A3005 RMK A01 T02770103  RH  034%=      5-min Rain = 0
KLA1 120245Z 07008KT 28/10 A3005 RMK A01 T02770104  RH  034%=      5-min Rain = 0
KLA1 120246Z 09010KT 28/10 A3005 RMK A01 T02760104  RH  034%=      5-min Rain = 0
KLA1 120247Z 08008KT 28/10 A3005 RMK A01 T02760104  RH  034%=      5-min Rain = 0
KLA1 120248Z 09008G13KT 28/10 A3005 RMK A01 T02760104  RH  034%=      5-min Rain = 0
KLA1 120249Z 07010KT 28/10 A3005 RMK A01 T02760104  RH  034%=      5-min Rain = 0
KLA1 120250Z 08010KT 28/10 A3005 RMK A01 T02760104  RH  034%=      5-min Rain = 0
KLA1 120251Z 08007KT 28/10 A3005 RMK A01 T02760104  RH  034%=      5-min Rain = 0
KLA1 120252Z 07008KT 28/10 A3005 RMK A01 T02760104  RH  034%=      5-min Rain = 0
KLA1 120253Z 07008KT 28/10 A3005 RMK A01 T02760104  RH  034%=      5-min Rain = 0
KLA1 120254Z 07007KT 28/10 A3006 RMK A01 T02760104  RH  034%=      5-min Rain = 0
KLA1 120255Z 08007KT 28/10 A3006 RMK A01 T02760104  RH  034%=      5-min Rain = 0
KLA1 120256Z 08006KT 28/10 A3006 RMK A01 T02760104  RH  034%=      5-min Rain = 0
KLA1 120257Z 08007KT 28/10 A3006 RMK A01 T02750104  RH  034%=      5-min Rain = 0
KLA1 120258Z 09006KT 27/10 A3006 RMK A01 T02740104  RH  035%=      5-min Rain = 0
KLA1 120259Z 08006KT 27/10 A3006 RMK A01 T02730104  RH  035%=      5-min Rain = 0
KLA1 120300Z 08005KT 27/10 A3006 RMK A01 T02730104  RH  035%=      5-min Rain = 0
KLA1 120301Z 08007KT 27/10 A3006 RMK A01 T02720104  RH  035%=      5-min Rain = 0
KLA1 120302Z 08006KT 27/10 A3006 RMK A01 T02720104  RH  035%=      5-min Rain = 0
KLA1 120303Z 08005KT 27/10 A3006 RMK A01 T02720104  RH  035%=      5-min Rain = 0
KLA1 120304Z 09007KT 27/11 A3006 RMK A01 T02710105  RH  035%=      5-min Rain = 0
KLA1 120305Z 09006KT 27/10 A3006 RMK A01 T02700104  RH  035%=      5-min Rain = 0
KLA1 120306Z 08005KT 27/11 A3006 RMK A01 T02700105  RH  035%=      5-min Rain = 0
KLA1 120307Z 09005KT 27/10 A3006 RMK A01 T02700104  RH  035%=      5-min Rain = 0
KLA1 120308Z 09004KT 27/11 A3006 RMK A01 T02700105  RH  035%=      5-min Rain = 0
KLA1 120309Z 09005KT 27/10 A3006 RMK A01 T02700104  RH  035%=      5-min Rain = 0
KLA1 120310Z 09005KT 27/10 A3006 RMK A01 T02690104  RH  036%=      5-min Rain = 0
KLA1 120311Z 10005KT 27/10 A3006 RMK A01 T02690104  RH  036%=      5-min Rain = 0
KLA1 120312Z 09004KT 27/10 A3006 RMK A01 T02690104  RH  036%=      5-min Rain = 0
KLA1 120313Z 08004KT 27/10 A3006 RMK A01 T02680104  RH  036%=      5-min Rain = 0
KLA1 120314Z 10005KT 27/10 A3006 RMK A01 T02670104  RH  036%=      5-min Rain = 0
KLA1 120315Z 10004KT 27/10 A3006 RMK A01 T02670104  RH  036%=      5-min Rain = 0
KLA1 120316Z 10004KT 27/10 A3006 RMK A01 T02670104  RH  036%=      5-min Rain = 0
KLA1 120317Z 10007KT 27/10 A3006 RMK A01 T02660104  RH  036%=      5-min Rain = 0
KLA1 120318Z 10006KT 27/10 A3006 RMK A01 T02660104  RH  036%=      5-min Rain = 0
KLA1 120319Z 11005KT 27/10 A3006 RMK A01 T02660104  RH  036%=      5-min Rain = 0
KLA1 120320Z 11005KT 27/10 A3006 RMK A01 T02660104  RH  036%=      5-min Rain = 0
KLA1 120321Z 10005KT 27/10 A3006 RMK A01 T02660104  RH  036%=      5-min Rain = 0
KLA1 120322Z 10005KT 27/10 A3006 RMK A01 T02660104  RH  036%=      5-min Rain = 0
KLA1 120323Z 10005KT 27/10 A3006 RMK A01 T02650104  RH  036%=      5-min Rain = 0
KLA1 120324Z 10006KT 27/10 A3006 RMK A01 T02650104  RH  036%=      5-min Rain = 0
KLA1 120325Z 09007KT 27/10 A3006 RMK A01 T02660104  RH  036%=      5-min Rain = 0
KLA1 120326Z 10006KT 27/10 A3006 RMK A01 T02660104  RH  036%=      5-min Rain = 0
KLA1 120327Z 10004KT 27/10 A3006 RMK A01 T02660104  RH  036%=      5-min Rain = 0
KLA1 120328Z 10005KT 27/10 A3006 RMK A01 T02660104  RH  036%=      5-min Rain = 0
KLA1 120329Z 10006KT 27/10 A3006 RMK A01 T02650104  RH  036%=      5-min Rain = 0
KLA1 120330Z 10006KT 27/10 A3006 RMK A01 T02650104  RH  036%=      5-min Rain = 0
KLA1 120331Z 10006KT 27/10 A3006 RMK A01 T02650104  RH  036%=      5-min Rain = 0
KLA1 120332Z 09006KT 26/10 A3006 RMK A01 T02640104  RH  036%=      5-min Rain = 0
KLA1 120333Z 09004KT 26/10 A3006 RMK A01 T02640104  RH  037%=      5-min Rain = 0
KLA1 120334Z 09003KT 26/10 A3006 RMK A01 T02640104  RH  037%=      5-min Rain = 0
KLA1 120335Z 10003KT 26/10 A3006 RMK A01 T02640104  RH  037%=      5-min Rain = 0
KLA1 120336Z 10005KT 26/10 A3006 RMK A01 T02640104  RH  037%=      5-min Rain = 0
KLA1 120337Z 08004KT 26/10 A3006 RMK A01 T02630104  RH  037%=      5-min Rain = 0
KLA1 120338Z 10004KT 26/10 A3007 RMK A01 T02630104  RH  037%=      5-min Rain = 0
KLA1 120339Z 10003KT 26/10 A3007 RMK A01 T02620104  RH  037%=      5-min Rain = 0
KLA1 120340Z 10002KT 26/10 A3007 RMK A01 T02620104  RH  037%=      5-min Rain = 0
KLA1 120341Z 08002KT 26/10 A3007 RMK A01 T02610104  RH  037%=      5-min Rain = 0
KLA1 120342Z 09003KT 26/10 A3007 RMK A01 T02610103  RH  037%=      5-min Rain = 0
KLA1 120343Z 11003KT 26/10 A3007 RMK A01 T02610104  RH  037%=      5-min Rain = 0
KLA1 120344Z 09003KT 26/10 A3007 RMK A01 T02610104  RH  037%=      5-min Rain = 0
KLA1 120345Z 09003KT 26/10 A3007 RMK A01 T02600104  RH  037%=      5-min Rain = 0
KLA1 120346Z 11002KT 26/10 A3007 RMK A01 T02600104  RH  037%=      5-min Rain = 0
KLA1 120347Z 11003KT 26/10 A3007 RMK A01 T02590104  RH  038%=      5-min Rain = 0
KLA1 120348Z 12004KT 26/10 A3007 RMK A01 T02590103  RH  037%=      5-min Rain = 0
KLA1 120349Z 10003KT 26/10 A3007 RMK A01 T02590104  RH  038%=      5-min Rain = 0
KLA1 120350Z 09003KT 26/10 A3007 RMK A01 T02590104  RH  038%=      5-min Rain = 0
KLA1 120351Z 09002KT 26/10 A3007 RMK A01 T02580104  RH  038%=      5-min Rain = 0
KLA1 120352Z 12003KT 26/10 A3007 RMK A01 T02580104  RH  038%=      5-min Rain = 0
KLA1 120353Z 10003KT 26/10 A3007 RMK A01 T02570104  RH  038%=      5-min Rain = 0
KLA1 120354Z 10002KT 26/10 A3007 RMK A01 T02570104  RH  038%=      5-min Rain = 0
KLA1 120355Z 10004KT 26/10 A3007 RMK A01 T02570104  RH  038%=      5-min Rain = 0
KLA1 120356Z 10004KT 26/10 A3007 RMK A01 T02570104  RH  038%=      5-min Rain = 0
KLA1 120357Z 08004KT 26/10 A3007 RMK A01 T02570104  RH  038%=      5-min Rain = 0
KLA1 120358Z 11003KT 26/10 A3007 RMK A01 T02570103  RH  038%=      5-min Rain = 0
KLA1 120359Z 10003KT 26/10 A3007 RMK A01 T02570104  RH  038%=      5-min Rain = 0
KLA1 120400Z 10004KT 26/10 A3007 RMK A01 T02570104  RH  038%=      5-min Rain = 0
KLA1 120401Z 11002KT 26/10 A3007 RMK A01 T02570103  RH  038%=      5-min Rain = 0
KLA1 120402Z 11002KT 26/10 A3007 RMK A01 T02570104  RH  038%=      5-min Rain = 0
KLA1 120403Z 10003KT 26/10 A3007 RMK A01 T02570104  RH  038%=      5-min Rain = 0
KLA1 120404Z 10005KT 26/10 A3007 RMK A01 T02570104  RH  038%=      5-min Rain = 0
KLA1 120405Z 09003KT 26/10 A3007 RMK A01 T02570104  RH  038%=      5-min Rain = 0
KLA1 120406Z 10002KT 26/10 A3007 RMK A01 T02570104  RH  038%=      5-min Rain = 0
KLA1 120407Z 11003KT 26/10 A3007 RMK A01 T02560103  RH  038%=      5-min Rain = 0
KLA1 120408Z 11002KT 26/10 A3007 RMK A01 T02560104  RH  038%=      5-min Rain = 0
KLA1 120409Z 09003KT 26/10 A3007 RMK A01 T02560104  RH  038%=      5-min Rain = 0
KLA1 120410Z 13001KT 26/10 A3007 RMK A01 T02560103  RH  038%=      5-min Rain = 0
KLA1 120411Z 12001KT 26/10 A3007 RMK A01 T02550103  RH  038%=      5-min Rain = 0
KLA1 120412Z 13001KT 26/10 A3007 RMK A01 T02550103  RH  038%=      5-min Rain = 0
KLA1 120413Z 09001KT 26/10 A3007 RMK A01 T02550103  RH  038%=      5-min Rain = 0
KLA1 120414Z 20000KT 25/10 A3007 RMK A01 T02530103  RH  039%=      5-min Rain = 0
KLA1 120415Z 19001KT 25/10 A3007 RMK A01 T02520104  RH  039%=      5-min Rain = 0
KLA1 120416Z 27000KT 25/10 A3007 RMK A01 T02520103  RH  039%=      5-min Rain = 0
KLA1 120417Z 22001KT 25/10 A3007 RMK A01 T02510103  RH  039%=      5-min Rain = 0
KLA1 120418Z 21000KT 25/10 A3007 RMK A01 T02510103  RH  039%=      5-min Rain = 0
KLA1 120419Z 24001KT 25/10 A3007 RMK A01 T02510103  RH  039%=      5-min Rain = 0
KLA1 120420Z 23001KT 25/10 A3007 RMK A01 T02510103  RH  039%=      5-min Rain = 0
KLA1 120421Z 25002KT 25/10 A3007 RMK A01 T02510104  RH  039%=      5-min Rain = 0
KLA1 120422Z 25001KT 25/10 A3007 RMK A01 T02500104  RH  040%=      5-min Rain = 0
KLA1 120423Z 26002KT 25/10 A3007 RMK A01 T02490103  RH  040%=      5-min Rain = 0
KLA1 120424Z 24002KT 25/10 A3007 RMK A01 T02480104  RH  040%=      5-min Rain = 0
KLA1 120425Z 22002KT 25/10 A3007 RMK A01 T02470104  RH  040%=      5-min Rain = 0
KLA1 120426Z 21002KT 25/10 A3007 RMK A01 T02460103  RH  041%=      5-min Rain = 0
KLA1 120427Z 22002KT 25/10 A3007 RMK A01 T02450103  RH  041%=      5-min Rain = 0
KLA1 120428Z 22002KT 25/10 A3007 RMK A01 T02450103  RH  041%=      5-min Rain = 0
KLA1 120429Z 20002KT 25/10 A3007 RMK A01 T02450104  RH  041%=      5-min Rain = 0
KLA1 120430Z 20001KT 24/10 A3007 RMK A01 T02440103  RH  041%=      5-min Rain = 0
KLA1 120431Z 22001KT 24/10 A3007 RMK A01 T02430104  RH  041%=      5-min Rain = 0
KLA1 120432Z 25001KT 24/10 A3007 RMK A01 T02420103  RH  042%=      5-min Rain = 0
KLA1 120433Z 24002KT 24/10 A3007 RMK A01 T02410104  RH  042%=      5-min Rain = 0
KLA1 120434Z 20000KT 24/10 A3007 RMK A01 T02400103  RH  042%=      5-min Rain = 0
KLA1 120435Z 19001KT 24/10 A3007 RMK A01 T02420102  RH  041%=      5-min Rain = 0
KLA1 120436Z 20001KT 24/10 A3007 RMK A01 T02440102  RH  041%=      5-min Rain = 0
KLA1 120437Z 17001KT 25/10 A3007 RMK A01 T02450103  RH  041%=      5-min Rain = 0
KLA1 120438Z 17001KT 25/10 A3007 RMK A01 T02450102  RH  040%=      5-min Rain = 0
KLA1 120439Z 00000KT 25/10 A3007 RMK A01 T02450102  RH  040%=      5-min Rain = 0
KLA1 120440Z 11000KT 25/10 A3007 RMK A01 T02460103  RH  040%=      5-min Rain = 0
KLA1 120441Z 08000KT 25/10 A3007 RMK A01 T02450102  RH  041%=      5-min Rain = 0
KLA1 120442Z 15000KT 25/10 A3007 RMK A01 T02450102  RH  040%=      5-min Rain = 0
KLA1 120443Z 18001KT 25/10 A3007 RMK A01 T02450102  RH  040%=      5-min Rain = 0
KLA1 120444Z 15000KT 25/10 A3007 RMK A01 T02450102  RH  040%=      5-min Rain = 0
KLA1 120445Z 14000KT 25/10 A3007 RMK A01 T02450102  RH  040%=      5-min Rain = 0
KLA1 120446Z 14000KT 25/10 A3007 RMK A01 T02450103  RH  041%=      5-min Rain = 0
KLA1 120447Z 15000KT 24/10 A3007 RMK A01 T02440102  RH  041%=      5-min Rain = 0
KLA1 120448Z 11000KT 24/10 A3007 RMK A01 T02440102  RH  041%=      5-min Rain = 0
KLA1 120449Z 00000KT 24/10 A3007 RMK A01 T02430102  RH  041%=      5-min Rain = 0
KLA1 120450Z 00000KT 24/10 A3007 RMK A01 T02430102  RH  041%=      5-min Rain = 0
KLA1 120451Z 12000KT 24/10 A3007 RMK A01 T02420102  RH  041%=      5-min Rain = 0
KLA1 120452Z 00000KT 24/10 A3007 RMK A01 T02420102  RH  041%=      5-min Rain = 0
KLA1 120453Z 00000KT 24/10 A3007 RMK A01 T02430102  RH  041%=      5-min Rain = 0
KLA1 120454Z 09001KT 24/10 A3007 RMK A01 T02430102  RH  041%=      5-min Rain = 0
KLA1 120455Z 12002KT 24/10 A3007 RMK A01 T02440102  RH  041%=      5-min Rain = 0
KLA1 120456Z 11002KT 25/10 A3007 RMK A01 T02450102  RH  040%=      5-min Rain = 0
KLA1 120457Z 13002KT 25/10 A3007 RMK A01 T02450102  RH  040%=      5-min Rain = 0
KLA1 120458Z 12002KT 25/10 A3007 RMK A01 T02450102  RH  040%=      5-min Rain = 0
KLA1 120459Z 10002KT 24/10 A3007 RMK A01 T02440102  RH  040%=      5-min Rain = 0

Page generated in 0.1692 seconds.